<?xml version="1.0" encoding="UTF-8" standalone="no" ?>
<gpx xmlns="http://www.topografix.com/GPX/1/1" xmlns:xsi="http://www.w3.org/2001/XMLSchema-instance" xsi:schemaLocation="http://www.topografix.com/GPX/1/1 http://www.topografix.com/GPX/1/1/gpx.xsd" version="1.1" creator="VisuGPX - https://www.visugpx.com">
  <metadata>
    <name>Rando Chambost 2016</name>
    <desc><![CDATA[Trace des 14km de la rando du père noel Chambost 2016]]></desc>
  </metadata>
  <trk>
    <name><![CDATA[2016-12-11 12:02:42]]></name>
    <trkseg>
      <trkpt lat="46.01811" lon="4.4959">
        <ele>227.49</ele>
        <time>2016-12-11T08:19:05Z</time>
      </trkpt>
      <trkpt lat="46.01811" lon="4.49589">
        <ele>232.78</ele>
        <time>2016-12-11T08:19:08Z</time>
      </trkpt>
      <trkpt lat="46.01811" lon="4.49589">
        <ele>232.78</ele>
        <time>2016-12-11T08:19:09Z</time>
      </trkpt>
      <trkpt lat="46.01811" lon="4.49588">
        <ele>244.31</ele>
        <time>2016-12-11T08:19:12Z</time>
      </trkpt>
      <trkpt lat="46.01811" lon="4.49588">
        <ele>244.31</ele>
        <time>2016-12-11T08:19:13Z</time>
      </trkpt>
      <trkpt lat="46.01811" lon="4.49588">
        <ele>247.68</ele>
        <time>2016-12-11T08:19:14Z</time>
      </trkpt>
      <trkpt lat="46.01812" lon="4.49587">
        <ele>257.77</ele>
        <time>2016-12-11T08:19:16Z</time>
      </trkpt>
      <trkpt lat="46.01812" lon="4.49586">
        <ele>257.77</ele>
        <time>2016-12-11T08:19:17Z</time>
      </trkpt>
      <trkpt lat="46.01812" lon="4.49586">
        <ele>268.83</ele>
        <time>2016-12-11T08:19:20Z</time>
      </trkpt>
      <trkpt lat="46.01813" lon="4.49586">
        <ele>268.83</ele>
        <time>2016-12-11T08:19:21Z</time>
      </trkpt>
      <trkpt lat="46.01812" lon="4.49586">
        <ele>274.11</ele>
        <time>2016-12-11T08:19:23Z</time>
      </trkpt>
      <trkpt lat="46.0181" lon="4.49587">
        <ele>281.32</ele>
        <time>2016-12-11T08:19:25Z</time>
      </trkpt>
      <trkpt lat="46.01808" lon="4.49585">
        <ele>288.05</ele>
        <time>2016-12-11T08:19:28Z</time>
      </trkpt>
      <trkpt lat="46.01807" lon="4.49584">
        <ele>288.05</ele>
        <time>2016-12-11T08:19:29Z</time>
      </trkpt>
      <trkpt lat="46.01806" lon="4.49581">
        <ele>292.38</ele>
        <time>2016-12-11T08:19:31Z</time>
      </trkpt>
      <trkpt lat="46.01803" lon="4.49579">
        <ele>295.74</ele>
        <time>2016-12-11T08:19:33Z</time>
      </trkpt>
      <trkpt lat="46.018" lon="4.49577">
        <ele>299.59</ele>
        <time>2016-12-11T08:19:35Z</time>
      </trkpt>
      <trkpt lat="46.01798" lon="4.49575">
        <ele>302.95</ele>
        <time>2016-12-11T08:19:37Z</time>
      </trkpt>
      <trkpt lat="46.01796" lon="4.49573">
        <ele>305.84</ele>
        <time>2016-12-11T08:19:39Z</time>
      </trkpt>
      <trkpt lat="46.01793" lon="4.4957">
        <ele>310.16</ele>
        <time>2016-12-11T08:19:42Z</time>
      </trkpt>
      <trkpt lat="46.0179" lon="4.49566">
        <ele>313.53</ele>
        <time>2016-12-11T08:19:45Z</time>
      </trkpt>
      <trkpt lat="46.01789" lon="4.49565">
        <ele>314.97</ele>
        <time>2016-12-11T08:19:46Z</time>
      </trkpt>
      <trkpt lat="46.01783" lon="4.49559">
        <ele>319.78</ele>
        <time>2016-12-11T08:19:51Z</time>
      </trkpt>
      <trkpt lat="46.01779" lon="4.49555">
        <ele>323.14</ele>
        <time>2016-12-11T08:19:55Z</time>
      </trkpt>
      <trkpt lat="46.01777" lon="4.49553">
        <ele>324.1</ele>
        <time>2016-12-11T08:19:57Z</time>
      </trkpt>
      <trkpt lat="46.0177" lon="4.49546">
        <ele>327.47</ele>
        <time>2016-12-11T08:20:03Z</time>
      </trkpt>
      <trkpt lat="46.01755" lon="4.49537">
        <ele>330.35</ele>
        <time>2016-12-11T08:20:11Z</time>
      </trkpt>
      <trkpt lat="46.01737" lon="4.49524">
        <ele>333.23</ele>
        <time>2016-12-11T08:20:26Z</time>
      </trkpt>
      <trkpt lat="46.01719" lon="4.49505">
        <ele>334.68</ele>
        <time>2016-12-11T08:20:43Z</time>
      </trkpt>
      <trkpt lat="46.01716" lon="4.49477">
        <ele>335.16</ele>
        <time>2016-12-11T08:20:58Z</time>
      </trkpt>
      <trkpt lat="46.01702" lon="4.4946">
        <ele>336.6</ele>
        <time>2016-12-11T08:21:12Z</time>
      </trkpt>
      <trkpt lat="46.01688" lon="4.49458">
        <ele>336.6</ele>
        <time>2016-12-11T08:21:21Z</time>
      </trkpt>
      <trkpt lat="46.01654" lon="4.49461">
        <ele>339</ele>
        <time>2016-12-11T08:21:42Z</time>
      </trkpt>
      <trkpt lat="46.0163" lon="4.49448">
        <ele>339.96</ele>
        <time>2016-12-11T08:21:59Z</time>
      </trkpt>
      <trkpt lat="46.01623" lon="4.49443">
        <ele>340.44</ele>
        <time>2016-12-11T08:22:05Z</time>
      </trkpt>
      <trkpt lat="46.01622" lon="4.49442">
        <ele>340.44</ele>
        <time>2016-12-11T08:22:06Z</time>
      </trkpt>
      <trkpt lat="46.01602" lon="4.4943">
        <ele>341.41</ele>
        <time>2016-12-11T08:22:21Z</time>
      </trkpt>
      <trkpt lat="46.01581" lon="4.49412">
        <ele>343.33</ele>
        <time>2016-12-11T08:22:41Z</time>
      </trkpt>
      <trkpt lat="46.01564" lon="4.49396">
        <ele>344.29</ele>
        <time>2016-12-11T08:22:58Z</time>
      </trkpt>
      <trkpt lat="46.01563" lon="4.49396">
        <ele>344.29</ele>
        <time>2016-12-11T08:22:59Z</time>
      </trkpt>
      <trkpt lat="46.01561" lon="4.49395">
        <ele>344.77</ele>
        <time>2016-12-11T08:23:00Z</time>
      </trkpt>
      <trkpt lat="46.01545" lon="4.4938">
        <ele>346.21</ele>
        <time>2016-12-11T08:23:18Z</time>
      </trkpt>
      <trkpt lat="46.01528" lon="4.4936">
        <ele>348.13</ele>
        <time>2016-12-11T08:23:36Z</time>
      </trkpt>
      <trkpt lat="46.0151" lon="4.49338">
        <ele>351.98</ele>
        <time>2016-12-11T08:23:58Z</time>
      </trkpt>
      <trkpt lat="46.01495" lon="4.49323">
        <ele>354.38</ele>
        <time>2016-12-11T08:24:16Z</time>
      </trkpt>
      <trkpt lat="46.01468" lon="4.49306">
        <ele>356.31</ele>
        <time>2016-12-11T08:24:33Z</time>
      </trkpt>
      <trkpt lat="46.01449" lon="4.49288">
        <ele>358.23</ele>
        <time>2016-12-11T08:24:52Z</time>
      </trkpt>
      <trkpt lat="46.01429" lon="4.49272">
        <ele>359.67</ele>
        <time>2016-12-11T08:25:10Z</time>
      </trkpt>
      <trkpt lat="46.01425" lon="4.49268">
        <ele>359.67</ele>
        <time>2016-12-11T08:25:15Z</time>
      </trkpt>
      <trkpt lat="46.01424" lon="4.49267">
        <ele>360.15</ele>
        <time>2016-12-11T08:25:16Z</time>
      </trkpt>
      <trkpt lat="46.01403" lon="4.4925">
        <ele>361.59</ele>
        <time>2016-12-11T08:25:35Z</time>
      </trkpt>
      <trkpt lat="46.01381" lon="4.49237">
        <ele>363.52</ele>
        <time>2016-12-11T08:25:53Z</time>
      </trkpt>
      <trkpt lat="46.01363" lon="4.49225">
        <ele>365.44</ele>
        <time>2016-12-11T08:26:10Z</time>
      </trkpt>
      <trkpt lat="46.01362" lon="4.49224">
        <ele>365.44</ele>
        <time>2016-12-11T08:26:11Z</time>
      </trkpt>
      <trkpt lat="46.01341" lon="4.49209">
        <ele>367.84</ele>
        <time>2016-12-11T08:26:30Z</time>
      </trkpt>
      <trkpt lat="46.01322" lon="4.49194">
        <ele>370.24</ele>
        <time>2016-12-11T08:26:48Z</time>
      </trkpt>
      <trkpt lat="46.01308" lon="4.49177">
        <ele>373.13</ele>
        <time>2016-12-11T08:27:05Z</time>
      </trkpt>
      <trkpt lat="46.01294" lon="4.49155">
        <ele>375.53</ele>
        <time>2016-12-11T08:27:23Z</time>
      </trkpt>
      <trkpt lat="46.01291" lon="4.49143">
        <ele>377.45</ele>
        <time>2016-12-11T08:27:32Z</time>
      </trkpt>
      <trkpt lat="46.0129" lon="4.49142">
        <ele>377.45</ele>
        <time>2016-12-11T08:27:33Z</time>
      </trkpt>
      <trkpt lat="46.01284" lon="4.4913">
        <ele>379.38</ele>
        <time>2016-12-11T08:27:42Z</time>
      </trkpt>
      <trkpt lat="46.01284" lon="4.49129">
        <ele>379.38</ele>
        <time>2016-12-11T08:27:43Z</time>
      </trkpt>
      <trkpt lat="46.01273" lon="4.49107">
        <ele>382.26</ele>
        <time>2016-12-11T08:27:59Z</time>
      </trkpt>
      <trkpt lat="46.01266" lon="4.49083">
        <ele>384.66</ele>
        <time>2016-12-11T08:28:14Z</time>
      </trkpt>
      <trkpt lat="46.01253" lon="4.49058">
        <ele>385.15</ele>
        <time>2016-12-11T08:28:32Z</time>
      </trkpt>
      <trkpt lat="46.01237" lon="4.49027">
        <ele>382.74</ele>
        <time>2016-12-11T08:28:53Z</time>
      </trkpt>
      <trkpt lat="46.01219" lon="4.49005">
        <ele>379.38</ele>
        <time>2016-12-11T08:29:12Z</time>
      </trkpt>
      <trkpt lat="46.01206" lon="4.48991">
        <ele>376.97</ele>
        <time>2016-12-11T08:29:25Z</time>
      </trkpt>
      <trkpt lat="46.01205" lon="4.4899">
        <ele>376.97</ele>
        <time>2016-12-11T08:29:26Z</time>
      </trkpt>
      <trkpt lat="46.01186" lon="4.4899">
        <ele>374.09</ele>
        <time>2016-12-11T08:29:41Z</time>
      </trkpt>
      <trkpt lat="46.01164" lon="4.48992">
        <ele>371.21</ele>
        <time>2016-12-11T08:29:58Z</time>
      </trkpt>
      <trkpt lat="46.01145" lon="4.48982">
        <ele>369.28</ele>
        <time>2016-12-11T08:30:14Z</time>
      </trkpt>
      <trkpt lat="46.01138" lon="4.48977">
        <ele>368.32</ele>
        <time>2016-12-11T08:30:21Z</time>
      </trkpt>
      <trkpt lat="46.01137" lon="4.48976">
        <ele>368.32</ele>
        <time>2016-12-11T08:30:22Z</time>
      </trkpt>
      <trkpt lat="46.01122" lon="4.48958">
        <ele>366.4</ele>
        <time>2016-12-11T08:30:39Z</time>
      </trkpt>
      <trkpt lat="46.01106" lon="4.48931">
        <ele>364.48</ele>
        <time>2016-12-11T08:30:58Z</time>
      </trkpt>
      <trkpt lat="46.01098" lon="4.4892">
        <ele>363.52</ele>
        <time>2016-12-11T08:31:08Z</time>
      </trkpt>
      <trkpt lat="46.01083" lon="4.48912">
        <ele>361.11</ele>
        <time>2016-12-11T08:31:23Z</time>
      </trkpt>
      <trkpt lat="46.01071" lon="4.48914">
        <ele>357.75</ele>
        <time>2016-12-11T08:31:36Z</time>
      </trkpt>
      <trkpt lat="46.01056" lon="4.48918">
        <ele>355.34</ele>
        <time>2016-12-11T08:31:50Z</time>
      </trkpt>
      <trkpt lat="46.01042" lon="4.4893">
        <ele>351.98</ele>
        <time>2016-12-11T08:32:07Z</time>
      </trkpt>
      <trkpt lat="46.01029" lon="4.48937">
        <ele>350.06</ele>
        <time>2016-12-11T08:32:21Z</time>
      </trkpt>
      <trkpt lat="46.01022" lon="4.48932">
        <ele>348.62</ele>
        <time>2016-12-11T08:32:30Z</time>
      </trkpt>
      <trkpt lat="46.0102" lon="4.48917">
        <ele>347.65</ele>
        <time>2016-12-11T08:32:40Z</time>
      </trkpt>
      <trkpt lat="46.01009" lon="4.48914">
        <ele>349.1</ele>
        <time>2016-12-11T08:32:54Z</time>
      </trkpt>
      <trkpt lat="46.01008" lon="4.48915">
        <ele>349.1</ele>
        <time>2016-12-11T08:32:55Z</time>
      </trkpt>
      <trkpt lat="46.01007" lon="4.48916">
        <ele>349.1</ele>
        <time>2016-12-11T08:32:56Z</time>
      </trkpt>
      <trkpt lat="46.01" lon="4.48923">
        <ele>350.54</ele>
        <time>2016-12-11T08:33:03Z</time>
      </trkpt>
      <trkpt lat="46.00984" lon="4.48923">
        <ele>354.38</ele>
        <time>2016-12-11T08:33:17Z</time>
      </trkpt>
      <trkpt lat="46.00983" lon="4.48906">
        <ele>358.23</ele>
        <time>2016-12-11T08:33:31Z</time>
      </trkpt>
      <trkpt lat="46.00983" lon="4.48905">
        <ele>358.23</ele>
        <time>2016-12-11T08:33:32Z</time>
      </trkpt>
      <trkpt lat="46.00986" lon="4.48896">
        <ele>359.19</ele>
        <time>2016-12-11T08:33:38Z</time>
      </trkpt>
      <trkpt lat="46.00983" lon="4.48878">
        <ele>362.55</ele>
        <time>2016-12-11T08:33:51Z</time>
      </trkpt>
      <trkpt lat="46.00981" lon="4.48873">
        <ele>363.04</ele>
        <time>2016-12-11T08:33:54Z</time>
      </trkpt>
      <trkpt lat="46.0097" lon="4.48862">
        <ele>365.44</ele>
        <time>2016-12-11T08:34:06Z</time>
      </trkpt>
      <trkpt lat="46.00969" lon="4.48862">
        <ele>365.92</ele>
        <time>2016-12-11T08:34:07Z</time>
      </trkpt>
      <trkpt lat="46.00961" lon="4.48866">
        <ele>367.84</ele>
        <time>2016-12-11T08:34:15Z</time>
      </trkpt>
      <trkpt lat="46.00945" lon="4.48878">
        <ele>371.21</ele>
        <time>2016-12-11T08:34:32Z</time>
      </trkpt>
      <trkpt lat="46.00927" lon="4.48886">
        <ele>374.09</ele>
        <time>2016-12-11T08:34:48Z</time>
      </trkpt>
      <trkpt lat="46.00912" lon="4.48901">
        <ele>376.01</ele>
        <time>2016-12-11T08:35:05Z</time>
      </trkpt>
      <trkpt lat="46.00903" lon="4.48916">
        <ele>378.42</ele>
        <time>2016-12-11T08:35:16Z</time>
      </trkpt>
      <trkpt lat="46.00895" lon="4.48933">
        <ele>380.82</ele>
        <time>2016-12-11T08:35:30Z</time>
      </trkpt>
      <trkpt lat="46.00881" lon="4.48957">
        <ele>384.18</ele>
        <time>2016-12-11T08:35:47Z</time>
      </trkpt>
      <trkpt lat="46.00871" lon="4.48982">
        <ele>387.55</ele>
        <time>2016-12-11T08:36:06Z</time>
      </trkpt>
      <trkpt lat="46.00858" lon="4.49008">
        <ele>389.95</ele>
        <time>2016-12-11T08:36:26Z</time>
      </trkpt>
      <trkpt lat="46.00846" lon="4.49026">
        <ele>393.32</ele>
        <time>2016-12-11T08:36:42Z</time>
      </trkpt>
      <trkpt lat="46.0084" lon="4.49037">
        <ele>394.76</ele>
        <time>2016-12-11T08:36:51Z</time>
      </trkpt>
      <trkpt lat="46.0084" lon="4.49038">
        <ele>394.76</ele>
        <time>2016-12-11T08:36:52Z</time>
      </trkpt>
      <trkpt lat="46.00839" lon="4.49039">
        <ele>394.76</ele>
        <time>2016-12-11T08:36:53Z</time>
      </trkpt>
      <trkpt lat="46.00826" lon="4.49054">
        <ele>397.64</ele>
        <time>2016-12-11T08:37:07Z</time>
      </trkpt>
      <trkpt lat="46.00807" lon="4.49067">
        <ele>400.53</ele>
        <time>2016-12-11T08:37:24Z</time>
      </trkpt>
      <trkpt lat="46.00789" lon="4.49075">
        <ele>403.41</ele>
        <time>2016-12-11T08:37:40Z</time>
      </trkpt>
      <trkpt lat="46.00769" lon="4.49087">
        <ele>406.29</ele>
        <time>2016-12-11T08:37:59Z</time>
      </trkpt>
      <trkpt lat="46.00765" lon="4.49089">
        <ele>407.74</ele>
        <time>2016-12-11T08:38:03Z</time>
      </trkpt>
      <trkpt lat="46.0075" lon="4.49107">
        <ele>410.62</ele>
        <time>2016-12-11T08:38:22Z</time>
      </trkpt>
      <trkpt lat="46.00744" lon="4.49134">
        <ele>411.1</ele>
        <time>2016-12-11T08:38:37Z</time>
      </trkpt>
      <trkpt lat="46.00743" lon="4.49136">
        <ele>411.1</ele>
        <time>2016-12-11T08:38:38Z</time>
      </trkpt>
      <trkpt lat="46.00743" lon="4.49138">
        <ele>411.1</ele>
        <time>2016-12-11T08:38:39Z</time>
      </trkpt>
      <trkpt lat="46.00742" lon="4.4914">
        <ele>411.1</ele>
        <time>2016-12-11T08:38:40Z</time>
      </trkpt>
      <trkpt lat="46.00743" lon="4.49142">
        <ele>411.1</ele>
        <time>2016-12-11T08:38:41Z</time>
      </trkpt>
      <trkpt lat="46.00742" lon="4.49148">
        <ele>411.1</ele>
        <time>2016-12-11T08:38:45Z</time>
      </trkpt>
      <trkpt lat="46.00739" lon="4.49161">
        <ele>408.22</ele>
        <time>2016-12-11T08:38:54Z</time>
      </trkpt>
      <trkpt lat="46.00738" lon="4.49162">
        <ele>407.74</ele>
        <time>2016-12-11T08:38:55Z</time>
      </trkpt>
      <trkpt lat="46.00731" lon="4.49184">
        <ele>405.33</ele>
        <time>2016-12-11T08:39:10Z</time>
      </trkpt>
      <trkpt lat="46.00726" lon="4.49214">
        <ele>402.93</ele>
        <time>2016-12-11T08:39:28Z</time>
      </trkpt>
      <trkpt lat="46.00729" lon="4.49246">
        <ele>401.49</ele>
        <time>2016-12-11T08:39:46Z</time>
      </trkpt>
      <trkpt lat="46.0074" lon="4.49275">
        <ele>398.6</ele>
        <time>2016-12-11T08:40:05Z</time>
      </trkpt>
      <trkpt lat="46.00755" lon="4.49309">
        <ele>396.2</ele>
        <time>2016-12-11T08:40:28Z</time>
      </trkpt>
      <trkpt lat="46.00769" lon="4.49338">
        <ele>393.32</ele>
        <time>2016-12-11T08:40:49Z</time>
      </trkpt>
      <trkpt lat="46.00783" lon="4.49372">
        <ele>390.91</ele>
        <time>2016-12-11T08:41:11Z</time>
      </trkpt>
      <trkpt lat="46.00793" lon="4.49398">
        <ele>388.51</ele>
        <time>2016-12-11T08:41:28Z</time>
      </trkpt>
      <trkpt lat="46.00803" lon="4.49424">
        <ele>386.11</ele>
        <time>2016-12-11T08:41:46Z</time>
      </trkpt>
      <trkpt lat="46.00806" lon="4.49455">
        <ele>383.7</ele>
        <time>2016-12-11T08:42:04Z</time>
      </trkpt>
      <trkpt lat="46.00806" lon="4.49457">
        <ele>383.7</ele>
        <time>2016-12-11T08:42:05Z</time>
      </trkpt>
      <trkpt lat="46.00805" lon="4.49459">
        <ele>383.7</ele>
        <time>2016-12-11T08:42:06Z</time>
      </trkpt>
      <trkpt lat="46.00805" lon="4.49461">
        <ele>383.7</ele>
        <time>2016-12-11T08:42:07Z</time>
      </trkpt>
      <trkpt lat="46.00805" lon="4.49463">
        <ele>383.7</ele>
        <time>2016-12-11T08:42:08Z</time>
      </trkpt>
      <trkpt lat="46.00805" lon="4.49464">
        <ele>383.7</ele>
        <time>2016-12-11T08:42:09Z</time>
      </trkpt>
      <trkpt lat="46.00803" lon="4.4947">
        <ele>383.22</ele>
        <time>2016-12-11T08:42:13Z</time>
      </trkpt>
      <trkpt lat="46.00794" lon="4.49479">
        <ele>381.78</ele>
        <time>2016-12-11T08:42:22Z</time>
      </trkpt>
      <trkpt lat="46.00793" lon="4.4948">
        <ele>381.78</ele>
        <time>2016-12-11T08:42:23Z</time>
      </trkpt>
      <trkpt lat="46.00792" lon="4.4948">
        <ele>381.3</ele>
        <time>2016-12-11T08:42:24Z</time>
      </trkpt>
      <trkpt lat="46.00775" lon="4.49486">
        <ele>379.38</ele>
        <time>2016-12-11T08:42:39Z</time>
      </trkpt>
      <trkpt lat="46.00763" lon="4.49485">
        <ele>378.42</ele>
        <time>2016-12-11T08:42:49Z</time>
      </trkpt>
      <trkpt lat="46.00747" lon="4.49488">
        <ele>376.49</ele>
        <time>2016-12-11T08:43:04Z</time>
      </trkpt>
      <trkpt lat="46.00725" lon="4.49495">
        <ele>374.57</ele>
        <time>2016-12-11T08:43:20Z</time>
      </trkpt>
      <trkpt lat="46.0072" lon="4.49497">
        <ele>374.09</ele>
        <time>2016-12-11T08:43:24Z</time>
      </trkpt>
      <trkpt lat="46.00699" lon="4.49511">
        <ele>371.69</ele>
        <time>2016-12-11T08:43:44Z</time>
      </trkpt>
      <trkpt lat="46.00679" lon="4.49518">
        <ele>369.76</ele>
        <time>2016-12-11T08:44:01Z</time>
      </trkpt>
      <trkpt lat="46.00662" lon="4.49526">
        <ele>367.84</ele>
        <time>2016-12-11T08:44:16Z</time>
      </trkpt>
      <trkpt lat="46.0064" lon="4.49531">
        <ele>365.92</ele>
        <time>2016-12-11T08:44:33Z</time>
      </trkpt>
      <trkpt lat="46.0062" lon="4.49538">
        <ele>363.04</ele>
        <time>2016-12-11T08:44:50Z</time>
      </trkpt>
      <trkpt lat="46.006" lon="4.49543">
        <ele>360.63</ele>
        <time>2016-12-11T08:45:07Z</time>
      </trkpt>
      <trkpt lat="46.0058" lon="4.49548">
        <ele>358.71</ele>
        <time>2016-12-11T08:45:24Z</time>
      </trkpt>
      <trkpt lat="46.00564" lon="4.49538">
        <ele>356.31</ele>
        <time>2016-12-11T08:45:38Z</time>
      </trkpt>
      <trkpt lat="46.00557" lon="4.49521">
        <ele>354.38</ele>
        <time>2016-12-11T08:45:51Z</time>
      </trkpt>
      <trkpt lat="46.00556" lon="4.49519">
        <ele>354.38</ele>
        <time>2016-12-11T08:45:52Z</time>
      </trkpt>
      <trkpt lat="46.00548" lon="4.49492">
        <ele>352.46</ele>
        <time>2016-12-11T08:46:09Z</time>
      </trkpt>
      <trkpt lat="46.00541" lon="4.49464">
        <ele>350.54</ele>
        <time>2016-12-11T08:46:25Z</time>
      </trkpt>
      <trkpt lat="46.00531" lon="4.49431">
        <ele>348.62</ele>
        <time>2016-12-11T08:46:42Z</time>
      </trkpt>
      <trkpt lat="46.00519" lon="4.49431">
        <ele>345.25</ele>
        <time>2016-12-11T08:46:54Z</time>
      </trkpt>
      <trkpt lat="46.00514" lon="4.49463">
        <ele>342.85</ele>
        <time>2016-12-11T08:47:10Z</time>
      </trkpt>
      <trkpt lat="46.00513" lon="4.4949">
        <ele>339.96</ele>
        <time>2016-12-11T08:47:27Z</time>
      </trkpt>
      <trkpt lat="46.00508" lon="4.49516">
        <ele>338.52</ele>
        <time>2016-12-11T08:47:41Z</time>
      </trkpt>
      <trkpt lat="46.00504" lon="4.49526">
        <ele>337.56</ele>
        <time>2016-12-11T08:47:47Z</time>
      </trkpt>
      <trkpt lat="46.00504" lon="4.49528">
        <ele>337.08</ele>
        <time>2016-12-11T08:47:48Z</time>
      </trkpt>
      <trkpt lat="46.00503" lon="4.4953">
        <ele>337.08</ele>
        <time>2016-12-11T08:47:49Z</time>
      </trkpt>
      <trkpt lat="46.00502" lon="4.49531">
        <ele>337.08</ele>
        <time>2016-12-11T08:47:50Z</time>
      </trkpt>
      <trkpt lat="46.00502" lon="4.49533">
        <ele>337.08</ele>
        <time>2016-12-11T08:47:51Z</time>
      </trkpt>
      <trkpt lat="46.00501" lon="4.49535">
        <ele>336.6</ele>
        <time>2016-12-11T08:47:52Z</time>
      </trkpt>
      <trkpt lat="46.00501" lon="4.49537">
        <ele>336.6</ele>
        <time>2016-12-11T08:47:53Z</time>
      </trkpt>
      <trkpt lat="46.00477" lon="4.49563">
        <ele>334.2</ele>
        <time>2016-12-11T08:48:13Z</time>
      </trkpt>
      <trkpt lat="46.00454" lon="4.49569">
        <ele>331.79</ele>
        <time>2016-12-11T08:48:32Z</time>
      </trkpt>
      <trkpt lat="46.00434" lon="4.49576">
        <ele>329.39</ele>
        <time>2016-12-11T08:48:49Z</time>
      </trkpt>
      <trkpt lat="46.00407" lon="4.49586">
        <ele>327.95</ele>
        <time>2016-12-11T08:49:11Z</time>
      </trkpt>
      <trkpt lat="46.00381" lon="4.49591">
        <ele>326.02</ele>
        <time>2016-12-11T08:49:30Z</time>
      </trkpt>
      <trkpt lat="46.00373" lon="4.49618">
        <ele>325.54</ele>
        <time>2016-12-11T08:49:44Z</time>
      </trkpt>
      <trkpt lat="46.00373" lon="4.4962">
        <ele>325.54</ele>
        <time>2016-12-11T08:49:45Z</time>
      </trkpt>
      <trkpt lat="46.00373" lon="4.49622">
        <ele>325.54</ele>
        <time>2016-12-11T08:49:46Z</time>
      </trkpt>
      <trkpt lat="46.00374" lon="4.49658">
        <ele>325.06</ele>
        <time>2016-12-11T08:50:04Z</time>
      </trkpt>
      <trkpt lat="46.00383" lon="4.49685">
        <ele>326.02</ele>
        <time>2016-12-11T08:50:22Z</time>
      </trkpt>
      <trkpt lat="46.00388" lon="4.4969">
        <ele>326.02</ele>
        <time>2016-12-11T08:50:27Z</time>
      </trkpt>
      <trkpt lat="46.00376" lon="4.497">
        <ele>328.91</ele>
        <time>2016-12-11T08:50:41Z</time>
      </trkpt>
      <trkpt lat="46.0036" lon="4.49704">
        <ele>331.79</ele>
        <time>2016-12-11T08:50:56Z</time>
      </trkpt>
      <trkpt lat="46.00339" lon="4.49716">
        <ele>335.16</ele>
        <time>2016-12-11T08:51:14Z</time>
      </trkpt>
      <trkpt lat="46.00319" lon="4.4973">
        <ele>337.08</ele>
        <time>2016-12-11T08:51:31Z</time>
      </trkpt>
      <trkpt lat="46.00297" lon="4.49748">
        <ele>337.56</ele>
        <time>2016-12-11T08:51:50Z</time>
      </trkpt>
      <trkpt lat="46.00274" lon="4.49761">
        <ele>339.48</ele>
        <time>2016-12-11T08:52:08Z</time>
      </trkpt>
      <trkpt lat="46.00257" lon="4.4977">
        <ele>340.92</ele>
        <time>2016-12-11T08:52:23Z</time>
      </trkpt>
      <trkpt lat="46.00253" lon="4.49779">
        <ele>342.37</ele>
        <time>2016-12-11T08:52:30Z</time>
      </trkpt>
      <trkpt lat="46.00253" lon="4.49783">
        <ele>342.85</ele>
        <time>2016-12-11T08:52:32Z</time>
      </trkpt>
      <trkpt lat="46.00254" lon="4.49786">
        <ele>343.33</ele>
        <time>2016-12-11T08:52:34Z</time>
      </trkpt>
      <trkpt lat="46.00266" lon="4.49807">
        <ele>346.21</ele>
        <time>2016-12-11T08:52:51Z</time>
      </trkpt>
      <trkpt lat="46.00278" lon="4.49829">
        <ele>349.58</ele>
        <time>2016-12-11T08:53:07Z</time>
      </trkpt>
      <trkpt lat="46.00289" lon="4.4985">
        <ele>352.94</ele>
        <time>2016-12-11T08:53:24Z</time>
      </trkpt>
      <trkpt lat="46.00296" lon="4.49871">
        <ele>355.83</ele>
        <time>2016-12-11T08:53:39Z</time>
      </trkpt>
      <trkpt lat="46.00301" lon="4.49886">
        <ele>358.23</ele>
        <time>2016-12-11T08:53:50Z</time>
      </trkpt>
      <trkpt lat="46.00306" lon="4.49892">
        <ele>360.15</ele>
        <time>2016-12-11T08:53:56Z</time>
      </trkpt>
      <trkpt lat="46.00322" lon="4.49898">
        <ele>363.04</ele>
        <time>2016-12-11T08:54:11Z</time>
      </trkpt>
      <trkpt lat="46.00337" lon="4.49903">
        <ele>366.4</ele>
        <time>2016-12-11T08:54:26Z</time>
      </trkpt>
      <trkpt lat="46.00351" lon="4.49909">
        <ele>369.28</ele>
        <time>2016-12-11T08:54:40Z</time>
      </trkpt>
      <trkpt lat="46.00351" lon="4.49908">
        <ele>369.28</ele>
        <time>2016-12-11T08:54:41Z</time>
      </trkpt>
      <trkpt lat="46.00363" lon="4.49909">
        <ele>371.21</ele>
        <time>2016-12-11T08:54:57Z</time>
      </trkpt>
      <trkpt lat="46.00375" lon="4.49909">
        <ele>374.09</ele>
        <time>2016-12-11T08:55:09Z</time>
      </trkpt>
      <trkpt lat="46.00392" lon="4.49906">
        <ele>376.97</ele>
        <time>2016-12-11T08:55:26Z</time>
      </trkpt>
      <trkpt lat="46.0041" lon="4.49907">
        <ele>380.82</ele>
        <time>2016-12-11T08:55:43Z</time>
      </trkpt>
      <trkpt lat="46.00411" lon="4.49907">
        <ele>380.82</ele>
        <time>2016-12-11T08:55:44Z</time>
      </trkpt>
      <trkpt lat="46.00425" lon="4.49913">
        <ele>383.7</ele>
        <time>2016-12-11T08:56:00Z</time>
      </trkpt>
      <trkpt lat="46.00428" lon="4.4993">
        <ele>386.59</ele>
        <time>2016-12-11T08:56:17Z</time>
      </trkpt>
      <trkpt lat="46.00425" lon="4.49942">
        <ele>389.95</ele>
        <time>2016-12-11T08:56:31Z</time>
      </trkpt>
      <trkpt lat="46.00417" lon="4.49961">
        <ele>392.36</ele>
        <time>2016-12-11T08:56:48Z</time>
      </trkpt>
      <trkpt lat="46.0041" lon="4.49978">
        <ele>394.76</ele>
        <time>2016-12-11T08:57:04Z</time>
      </trkpt>
      <trkpt lat="46.00406" lon="4.49989">
        <ele>397.16</ele>
        <time>2016-12-11T08:57:21Z</time>
      </trkpt>
      <trkpt lat="46.00404" lon="4.5001">
        <ele>400.05</ele>
        <time>2016-12-11T08:57:38Z</time>
      </trkpt>
      <trkpt lat="46.00414" lon="4.50015">
        <ele>402.93</ele>
        <time>2016-12-11T08:57:54Z</time>
      </trkpt>
      <trkpt lat="46.00426" lon="4.50017">
        <ele>405.81</ele>
        <time>2016-12-11T08:58:13Z</time>
      </trkpt>
      <trkpt lat="46.00427" lon="4.50017">
        <ele>405.81</ele>
        <time>2016-12-11T08:58:14Z</time>
      </trkpt>
      <trkpt lat="46.00441" lon="4.50023">
        <ele>408.7</ele>
        <time>2016-12-11T08:58:35Z</time>
      </trkpt>
      <trkpt lat="46.0045" lon="4.50028">
        <ele>410.62</ele>
        <time>2016-12-11T08:58:46Z</time>
      </trkpt>
      <trkpt lat="46.00458" lon="4.50035">
        <ele>412.54</ele>
        <time>2016-12-11T08:59:04Z</time>
      </trkpt>
      <trkpt lat="46.00467" lon="4.50052">
        <ele>415.43</ele>
        <time>2016-12-11T08:59:24Z</time>
      </trkpt>
      <trkpt lat="46.00477" lon="4.50064">
        <ele>418.31</ele>
        <time>2016-12-11T08:59:42Z</time>
      </trkpt>
      <trkpt lat="46.00491" lon="4.50076">
        <ele>421.68</ele>
        <time>2016-12-11T09:00:01Z</time>
      </trkpt>
      <trkpt lat="46.00488" lon="4.50083">
        <ele>423.6</ele>
        <time>2016-12-11T09:00:18Z</time>
      </trkpt>
      <trkpt lat="46.00477" lon="4.50094">
        <ele>426</ele>
        <time>2016-12-11T09:00:37Z</time>
      </trkpt>
      <trkpt lat="46.00469" lon="4.501">
        <ele>428.89</ele>
        <time>2016-12-11T09:00:52Z</time>
      </trkpt>
      <trkpt lat="46.00461" lon="4.50114">
        <ele>430.81</ele>
        <time>2016-12-11T09:01:07Z</time>
      </trkpt>
      <trkpt lat="46.00452" lon="4.50131">
        <ele>433.69</ele>
        <time>2016-12-11T09:01:24Z</time>
      </trkpt>
      <trkpt lat="46.00445" lon="4.50146">
        <ele>436.1</ele>
        <time>2016-12-11T09:01:39Z</time>
      </trkpt>
      <trkpt lat="46.00439" lon="4.50168">
        <ele>438.02</ele>
        <time>2016-12-11T09:01:57Z</time>
      </trkpt>
      <trkpt lat="46.00438" lon="4.50191">
        <ele>438.98</ele>
        <time>2016-12-11T09:02:13Z</time>
      </trkpt>
      <trkpt lat="46.00437" lon="4.5021">
        <ele>442.34</ele>
        <time>2016-12-11T09:02:30Z</time>
      </trkpt>
      <trkpt lat="46.00437" lon="4.5023">
        <ele>444.75</ele>
        <time>2016-12-11T09:02:47Z</time>
      </trkpt>
      <trkpt lat="46.0044" lon="4.5025">
        <ele>446.19</ele>
        <time>2016-12-11T09:03:04Z</time>
      </trkpt>
      <trkpt lat="46.00444" lon="4.5027">
        <ele>447.63</ele>
        <time>2016-12-11T09:03:21Z</time>
      </trkpt>
      <trkpt lat="46.00451" lon="4.50292">
        <ele>449.55</ele>
        <time>2016-12-11T09:03:37Z</time>
      </trkpt>
      <trkpt lat="46.00457" lon="4.50313">
        <ele>451.48</ele>
        <time>2016-12-11T09:03:52Z</time>
      </trkpt>
      <trkpt lat="46.00467" lon="4.50331">
        <ele>451.96</ele>
        <time>2016-12-11T09:04:08Z</time>
      </trkpt>
      <trkpt lat="46.00476" lon="4.50358">
        <ele>454.36</ele>
        <time>2016-12-11T09:04:25Z</time>
      </trkpt>
      <trkpt lat="46.00484" lon="4.50378">
        <ele>455.32</ele>
        <time>2016-12-11T09:04:39Z</time>
      </trkpt>
      <trkpt lat="46.00493" lon="4.50391">
        <ele>456.28</ele>
        <time>2016-12-11T09:04:52Z</time>
      </trkpt>
      <trkpt lat="46.00506" lon="4.5041">
        <ele>457.24</ele>
        <time>2016-12-11T09:05:09Z</time>
      </trkpt>
      <trkpt lat="46.00512" lon="4.50433">
        <ele>458.69</ele>
        <time>2016-12-11T09:05:25Z</time>
      </trkpt>
      <trkpt lat="46.00517" lon="4.50461">
        <ele>459.65</ele>
        <time>2016-12-11T09:05:41Z</time>
      </trkpt>
      <trkpt lat="46.00522" lon="4.50477">
        <ele>460.13</ele>
        <time>2016-12-11T09:05:53Z</time>
      </trkpt>
      <trkpt lat="46.00523" lon="4.50482">
        <ele>460.13</ele>
        <time>2016-12-11T09:05:56Z</time>
      </trkpt>
      <trkpt lat="46.00528" lon="4.50503">
        <ele>461.09</ele>
        <time>2016-12-11T09:06:11Z</time>
      </trkpt>
      <trkpt lat="46.00534" lon="4.50532">
        <ele>462.05</ele>
        <time>2016-12-11T09:06:30Z</time>
      </trkpt>
      <trkpt lat="46.00541" lon="4.50556">
        <ele>462.53</ele>
        <time>2016-12-11T09:06:45Z</time>
      </trkpt>
      <trkpt lat="46.00549" lon="4.50579">
        <ele>463.97</ele>
        <time>2016-12-11T09:07:01Z</time>
      </trkpt>
      <trkpt lat="46.00555" lon="4.50603">
        <ele>464.45</ele>
        <time>2016-12-11T09:07:16Z</time>
      </trkpt>
      <trkpt lat="46.00554" lon="4.5064">
        <ele>464.45</ele>
        <time>2016-12-11T09:07:35Z</time>
      </trkpt>
      <trkpt lat="46.00557" lon="4.50672">
        <ele>464.93</ele>
        <time>2016-12-11T09:07:53Z</time>
      </trkpt>
      <trkpt lat="46.00557" lon="4.50674">
        <ele>464.93</ele>
        <time>2016-12-11T09:07:54Z</time>
      </trkpt>
      <trkpt lat="46.00562" lon="4.50703">
        <ele>465.42</ele>
        <time>2016-12-11T09:08:12Z</time>
      </trkpt>
      <trkpt lat="46.00569" lon="4.50726">
        <ele>468.3</ele>
        <time>2016-12-11T09:08:29Z</time>
      </trkpt>
      <trkpt lat="46.00576" lon="4.50746">
        <ele>469.26</ele>
        <time>2016-12-11T09:08:46Z</time>
      </trkpt>
      <trkpt lat="46.00583" lon="4.50769">
        <ele>471.18</ele>
        <time>2016-12-11T09:09:04Z</time>
      </trkpt>
      <trkpt lat="46.00589" lon="4.5079">
        <ele>474.07</ele>
        <time>2016-12-11T09:09:23Z</time>
      </trkpt>
      <trkpt lat="46.00594" lon="4.50812">
        <ele>476.95</ele>
        <time>2016-12-11T09:09:42Z</time>
      </trkpt>
      <trkpt lat="46.00593" lon="4.5083">
        <ele>480.32</ele>
        <time>2016-12-11T09:10:00Z</time>
      </trkpt>
      <trkpt lat="46.00587" lon="4.50847">
        <ele>483.2</ele>
        <time>2016-12-11T09:10:17Z</time>
      </trkpt>
      <trkpt lat="46.0059" lon="4.5087">
        <ele>486.56</ele>
        <time>2016-12-11T09:10:36Z</time>
      </trkpt>
      <trkpt lat="46.00597" lon="4.50888">
        <ele>489.93</ele>
        <time>2016-12-11T09:10:56Z</time>
      </trkpt>
      <trkpt lat="46.0059" lon="4.50897">
        <ele>492.81</ele>
        <time>2016-12-11T09:11:13Z</time>
      </trkpt>
      <trkpt lat="46.0058" lon="4.509">
        <ele>495.22</ele>
        <time>2016-12-11T09:11:26Z</time>
      </trkpt>
      <trkpt lat="46.00572" lon="4.50914">
        <ele>498.1</ele>
        <time>2016-12-11T09:11:44Z</time>
      </trkpt>
      <trkpt lat="46.00571" lon="4.50924">
        <ele>499.06</ele>
        <time>2016-12-11T09:12:00Z</time>
      </trkpt>
      <trkpt lat="46.00571" lon="4.50931">
        <ele>500.5</ele>
        <time>2016-12-11T09:12:23Z</time>
      </trkpt>
      <trkpt lat="46.00571" lon="4.50943">
        <ele>502.91</ele>
        <time>2016-12-11T09:12:38Z</time>
      </trkpt>
      <trkpt lat="46.00567" lon="4.50962">
        <ele>506.27</ele>
        <time>2016-12-11T09:12:56Z</time>
      </trkpt>
      <trkpt lat="46.00566" lon="4.5098">
        <ele>508.67</ele>
        <time>2016-12-11T09:13:13Z</time>
      </trkpt>
      <trkpt lat="46.00568" lon="4.50998">
        <ele>511.56</ele>
        <time>2016-12-11T09:13:29Z</time>
      </trkpt>
      <trkpt lat="46.00574" lon="4.51016">
        <ele>514.44</ele>
        <time>2016-12-11T09:13:47Z</time>
      </trkpt>
      <trkpt lat="46.00577" lon="4.51037">
        <ele>516.37</ele>
        <time>2016-12-11T09:14:04Z</time>
      </trkpt>
      <trkpt lat="46.00579" lon="4.51056">
        <ele>518.77</ele>
        <time>2016-12-11T09:14:21Z</time>
      </trkpt>
      <trkpt lat="46.00581" lon="4.51076">
        <ele>521.65</ele>
        <time>2016-12-11T09:14:40Z</time>
      </trkpt>
      <trkpt lat="46.00582" lon="4.51096">
        <ele>524.54</ele>
        <time>2016-12-11T09:14:57Z</time>
      </trkpt>
      <trkpt lat="46.00588" lon="4.51112">
        <ele>525.98</ele>
        <time>2016-12-11T09:15:14Z</time>
      </trkpt>
      <trkpt lat="46.00596" lon="4.51129">
        <ele>528.86</ele>
        <time>2016-12-11T09:15:31Z</time>
      </trkpt>
      <trkpt lat="46.00598" lon="4.51151">
        <ele>531.75</ele>
        <time>2016-12-11T09:15:50Z</time>
      </trkpt>
      <trkpt lat="46.00597" lon="4.51169">
        <ele>534.63</ele>
        <time>2016-12-11T09:16:07Z</time>
      </trkpt>
      <trkpt lat="46.00598" lon="4.51192">
        <ele>537.03</ele>
        <time>2016-12-11T09:16:25Z</time>
      </trkpt>
      <trkpt lat="46.00599" lon="4.51207">
        <ele>538.48</ele>
        <time>2016-12-11T09:16:46Z</time>
      </trkpt>
      <trkpt lat="46.006" lon="4.51207">
        <ele>538.48</ele>
        <time>2016-12-11T09:17:09Z</time>
      </trkpt>
      <trkpt lat="46.006" lon="4.51205">
        <ele>538.48</ele>
        <time>2016-12-11T09:17:33Z</time>
      </trkpt>
      <trkpt lat="46.00601" lon="4.51206">
        <ele>538.48</ele>
        <time>2016-12-11T09:17:50Z</time>
      </trkpt>
      <trkpt lat="46.00602" lon="4.51217">
        <ele>540.4</ele>
        <time>2016-12-11T09:18:12Z</time>
      </trkpt>
      <trkpt lat="46.00603" lon="4.51233">
        <ele>542.8</ele>
        <time>2016-12-11T09:18:24Z</time>
      </trkpt>
      <trkpt lat="46.00606" lon="4.51254">
        <ele>545.69</ele>
        <time>2016-12-11T09:18:42Z</time>
      </trkpt>
      <trkpt lat="46.00609" lon="4.51276">
        <ele>548.09</ele>
        <time>2016-12-11T09:18:59Z</time>
      </trkpt>
      <trkpt lat="46.00609" lon="4.51299">
        <ele>550.49</ele>
        <time>2016-12-11T09:19:17Z</time>
      </trkpt>
      <trkpt lat="46.00607" lon="4.51319">
        <ele>552.41</ele>
        <time>2016-12-11T09:19:33Z</time>
      </trkpt>
      <trkpt lat="46.006" lon="4.51343">
        <ele>555.78</ele>
        <time>2016-12-11T09:19:53Z</time>
      </trkpt>
      <trkpt lat="46.00594" lon="4.5136">
        <ele>559.14</ele>
        <time>2016-12-11T09:20:08Z</time>
      </trkpt>
      <trkpt lat="46.00588" lon="4.5138">
        <ele>561.55</ele>
        <time>2016-12-11T09:20:27Z</time>
      </trkpt>
      <trkpt lat="46.00585" lon="4.51397">
        <ele>564.91</ele>
        <time>2016-12-11T09:20:44Z</time>
      </trkpt>
      <trkpt lat="46.0058" lon="4.51418">
        <ele>567.32</ele>
        <time>2016-12-11T09:21:02Z</time>
      </trkpt>
      <trkpt lat="46.00575" lon="4.51435">
        <ele>569.24</ele>
        <time>2016-12-11T09:21:18Z</time>
      </trkpt>
      <trkpt lat="46.0057" lon="4.51451">
        <ele>572.6</ele>
        <time>2016-12-11T09:21:33Z</time>
      </trkpt>
      <trkpt lat="46.00561" lon="4.51473">
        <ele>574.53</ele>
        <time>2016-12-11T09:21:53Z</time>
      </trkpt>
      <trkpt lat="46.00556" lon="4.51488">
        <ele>576.45</ele>
        <time>2016-12-11T09:22:09Z</time>
      </trkpt>
      <trkpt lat="46.00552" lon="4.51506">
        <ele>577.89</ele>
        <time>2016-12-11T09:22:27Z</time>
      </trkpt>
      <trkpt lat="46.00546" lon="4.51522">
        <ele>580.77</ele>
        <time>2016-12-11T09:22:44Z</time>
      </trkpt>
      <trkpt lat="46.00541" lon="4.51545">
        <ele>583.66</ele>
        <time>2016-12-11T09:23:04Z</time>
      </trkpt>
      <trkpt lat="46.00537" lon="4.51568">
        <ele>586.54</ele>
        <time>2016-12-11T09:23:25Z</time>
      </trkpt>
      <trkpt lat="46.00534" lon="4.51594">
        <ele>589.43</ele>
        <time>2016-12-11T09:23:44Z</time>
      </trkpt>
      <trkpt lat="46.00545" lon="4.51608">
        <ele>591.83</ele>
        <time>2016-12-11T09:24:03Z</time>
      </trkpt>
      <trkpt lat="46.00557" lon="4.5162">
        <ele>594.23</ele>
        <time>2016-12-11T09:24:21Z</time>
      </trkpt>
      <trkpt lat="46.00556" lon="4.51642">
        <ele>597.12</ele>
        <time>2016-12-11T09:24:38Z</time>
      </trkpt>
      <trkpt lat="46.00549" lon="4.51663">
        <ele>600</ele>
        <time>2016-12-11T09:24:58Z</time>
      </trkpt>
      <trkpt lat="46.00548" lon="4.51673">
        <ele>600.96</ele>
        <time>2016-12-11T09:25:10Z</time>
      </trkpt>
      <trkpt lat="46.00546" lon="4.51696">
        <ele>602.88</ele>
        <time>2016-12-11T09:25:28Z</time>
      </trkpt>
      <trkpt lat="46.00545" lon="4.51701">
        <ele>603.85</ele>
        <time>2016-12-11T09:25:32Z</time>
      </trkpt>
      <trkpt lat="46.00544" lon="4.51717">
        <ele>604.81</ele>
        <time>2016-12-11T09:25:43Z</time>
      </trkpt>
      <trkpt lat="46.00544" lon="4.51739">
        <ele>606.73</ele>
        <time>2016-12-11T09:25:59Z</time>
      </trkpt>
      <trkpt lat="46.00544" lon="4.5176">
        <ele>608.65</ele>
        <time>2016-12-11T09:26:14Z</time>
      </trkpt>
      <trkpt lat="46.00543" lon="4.51784">
        <ele>610.09</ele>
        <time>2016-12-11T09:26:30Z</time>
      </trkpt>
      <trkpt lat="46.00543" lon="4.51813">
        <ele>611.54</ele>
        <time>2016-12-11T09:26:49Z</time>
      </trkpt>
      <trkpt lat="46.00543" lon="4.51837">
        <ele>613.94</ele>
        <time>2016-12-11T09:27:06Z</time>
      </trkpt>
      <trkpt lat="46.00544" lon="4.51856">
        <ele>615.38</ele>
        <time>2016-12-11T09:27:20Z</time>
      </trkpt>
      <trkpt lat="46.00543" lon="4.51858">
        <ele>615.38</ele>
        <time>2016-12-11T09:27:22Z</time>
      </trkpt>
      <trkpt lat="46.00536" lon="4.51887">
        <ele>615.38</ele>
        <time>2016-12-11T09:27:39Z</time>
      </trkpt>
      <trkpt lat="46.0053" lon="4.51912">
        <ele>615.86</ele>
        <time>2016-12-11T09:27:54Z</time>
      </trkpt>
      <trkpt lat="46.00522" lon="4.51942">
        <ele>615.86</ele>
        <time>2016-12-11T09:28:13Z</time>
      </trkpt>
      <trkpt lat="46.00514" lon="4.51971">
        <ele>616.34</ele>
        <time>2016-12-11T09:28:31Z</time>
      </trkpt>
      <trkpt lat="46.00508" lon="4.51999">
        <ele>616.82</ele>
        <time>2016-12-11T09:28:49Z</time>
      </trkpt>
      <trkpt lat="46.00505" lon="4.52028">
        <ele>616.82</ele>
        <time>2016-12-11T09:29:06Z</time>
      </trkpt>
      <trkpt lat="46.00505" lon="4.52062">
        <ele>616.82</ele>
        <time>2016-12-11T09:29:25Z</time>
      </trkpt>
      <trkpt lat="46.00516" lon="4.52093">
        <ele>617.78</ele>
        <time>2016-12-11T09:29:45Z</time>
      </trkpt>
      <trkpt lat="46.00526" lon="4.52126">
        <ele>617.78</ele>
        <time>2016-12-11T09:30:05Z</time>
      </trkpt>
      <trkpt lat="46.00531" lon="4.5216">
        <ele>617.78</ele>
        <time>2016-12-11T09:30:25Z</time>
      </trkpt>
      <trkpt lat="46.00533" lon="4.52192">
        <ele>617.78</ele>
        <time>2016-12-11T09:30:43Z</time>
      </trkpt>
      <trkpt lat="46.00532" lon="4.52226">
        <ele>618.75</ele>
        <time>2016-12-11T09:31:02Z</time>
      </trkpt>
      <trkpt lat="46.0053" lon="4.52263">
        <ele>618.75</ele>
        <time>2016-12-11T09:31:23Z</time>
      </trkpt>
      <trkpt lat="46.00521" lon="4.52298">
        <ele>619.23</ele>
        <time>2016-12-11T09:31:44Z</time>
      </trkpt>
      <trkpt lat="46.00509" lon="4.52327">
        <ele>619.23</ele>
        <time>2016-12-11T09:32:03Z</time>
      </trkpt>
      <trkpt lat="46.00493" lon="4.52356">
        <ele>619.23</ele>
        <time>2016-12-11T09:32:24Z</time>
      </trkpt>
      <trkpt lat="46.00479" lon="4.52381">
        <ele>619.71</ele>
        <time>2016-12-11T09:32:42Z</time>
      </trkpt>
      <trkpt lat="46.00465" lon="4.52404">
        <ele>619.71</ele>
        <time>2016-12-11T09:33:00Z</time>
      </trkpt>
      <trkpt lat="46.00452" lon="4.52428">
        <ele>619.71</ele>
        <time>2016-12-11T09:33:18Z</time>
      </trkpt>
      <trkpt lat="46.00437" lon="4.52456">
        <ele>620.19</ele>
        <time>2016-12-11T09:33:38Z</time>
      </trkpt>
      <trkpt lat="46.00424" lon="4.52478">
        <ele>620.19</ele>
        <time>2016-12-11T09:33:54Z</time>
      </trkpt>
      <trkpt lat="46.00408" lon="4.52499">
        <ele>620.19</ele>
        <time>2016-12-11T09:34:11Z</time>
      </trkpt>
      <trkpt lat="46.00392" lon="4.52517">
        <ele>620.67</ele>
        <time>2016-12-11T09:34:29Z</time>
      </trkpt>
      <trkpt lat="46.00374" lon="4.52533">
        <ele>621.15</ele>
        <time>2016-12-11T09:34:46Z</time>
      </trkpt>
      <trkpt lat="46.00353" lon="4.52548">
        <ele>621.63</ele>
        <time>2016-12-11T09:35:05Z</time>
      </trkpt>
      <trkpt lat="46.00335" lon="4.52565">
        <ele>622.11</ele>
        <time>2016-12-11T09:35:22Z</time>
      </trkpt>
      <trkpt lat="46.00321" lon="4.52585">
        <ele>622.11</ele>
        <time>2016-12-11T09:35:38Z</time>
      </trkpt>
      <trkpt lat="46.00319" lon="4.52587">
        <ele>622.11</ele>
        <time>2016-12-11T09:35:40Z</time>
      </trkpt>
      <trkpt lat="46.00304" lon="4.52608">
        <ele>622.59</ele>
        <time>2016-12-11T09:35:59Z</time>
      </trkpt>
      <trkpt lat="46.00299" lon="4.52614">
        <ele>622.59</ele>
        <time>2016-12-11T09:36:04Z</time>
      </trkpt>
      <trkpt lat="46.00284" lon="4.52631">
        <ele>622.59</ele>
        <time>2016-12-11T09:36:18Z</time>
      </trkpt>
      <trkpt lat="46.00276" lon="4.52638">
        <ele>623.07</ele>
        <time>2016-12-11T09:36:25Z</time>
      </trkpt>
      <trkpt lat="46.00257" lon="4.52659">
        <ele>623.07</ele>
        <time>2016-12-11T09:36:45Z</time>
      </trkpt>
      <trkpt lat="46.00239" lon="4.52679">
        <ele>623.55</ele>
        <time>2016-12-11T09:37:03Z</time>
      </trkpt>
      <trkpt lat="46.0022" lon="4.52699">
        <ele>623.07</ele>
        <time>2016-12-11T09:37:22Z</time>
      </trkpt>
      <trkpt lat="46.00203" lon="4.52697">
        <ele>624.03</ele>
        <time>2016-12-11T09:37:37Z</time>
      </trkpt>
      <trkpt lat="46.00185" lon="4.52687">
        <ele>625.47</ele>
        <time>2016-12-11T09:37:54Z</time>
      </trkpt>
      <trkpt lat="46.00168" lon="4.52667">
        <ele>625.96</ele>
        <time>2016-12-11T09:38:13Z</time>
      </trkpt>
      <trkpt lat="46.0016" lon="4.52658">
        <ele>625.96</ele>
        <time>2016-12-11T09:38:24Z</time>
      </trkpt>
      <trkpt lat="46.00158" lon="4.52654">
        <ele>626.44</ele>
        <time>2016-12-11T09:38:27Z</time>
      </trkpt>
      <trkpt lat="46.00144" lon="4.52635">
        <ele>627.4</ele>
        <time>2016-12-11T09:38:45Z</time>
      </trkpt>
      <trkpt lat="46.00129" lon="4.52616">
        <ele>627.4</ele>
        <time>2016-12-11T09:39:01Z</time>
      </trkpt>
      <trkpt lat="46.00114" lon="4.52599">
        <ele>627.88</ele>
        <time>2016-12-11T09:39:16Z</time>
      </trkpt>
      <trkpt lat="46.00095" lon="4.52577">
        <ele>627.88</ele>
        <time>2016-12-11T09:39:35Z</time>
      </trkpt>
      <trkpt lat="46.00077" lon="4.52561">
        <ele>628.84</ele>
        <time>2016-12-11T09:39:52Z</time>
      </trkpt>
      <trkpt lat="46.00056" lon="4.52549">
        <ele>629.32</ele>
        <time>2016-12-11T09:40:10Z</time>
      </trkpt>
      <trkpt lat="46.00038" lon="4.52538">
        <ele>629.8</ele>
        <time>2016-12-11T09:40:27Z</time>
      </trkpt>
      <trkpt lat="46.00019" lon="4.52521">
        <ele>630.76</ele>
        <time>2016-12-11T09:40:46Z</time>
      </trkpt>
      <trkpt lat="45.99999" lon="4.52501">
        <ele>630.76</ele>
        <time>2016-12-11T09:41:06Z</time>
      </trkpt>
      <trkpt lat="45.9998" lon="4.5248">
        <ele>630.76</ele>
        <time>2016-12-11T09:41:27Z</time>
      </trkpt>
      <trkpt lat="45.99963" lon="4.5246">
        <ele>630.76</ele>
        <time>2016-12-11T09:41:45Z</time>
      </trkpt>
      <trkpt lat="45.99945" lon="4.5244">
        <ele>629.8</ele>
        <time>2016-12-11T09:42:03Z</time>
      </trkpt>
      <trkpt lat="45.99927" lon="4.52422">
        <ele>628.36</ele>
        <time>2016-12-11T09:42:22Z</time>
      </trkpt>
      <trkpt lat="45.99911" lon="4.52403">
        <ele>627.4</ele>
        <time>2016-12-11T09:42:40Z</time>
      </trkpt>
      <trkpt lat="45.99898" lon="4.52389">
        <ele>625.96</ele>
        <time>2016-12-11T09:42:53Z</time>
      </trkpt>
      <trkpt lat="45.99883" lon="4.52369">
        <ele>625.47</ele>
        <time>2016-12-11T09:43:11Z</time>
      </trkpt>
      <trkpt lat="45.99864" lon="4.5235">
        <ele>624.03</ele>
        <time>2016-12-11T09:43:30Z</time>
      </trkpt>
      <trkpt lat="45.99843" lon="4.5234">
        <ele>622.59</ele>
        <time>2016-12-11T09:43:48Z</time>
      </trkpt>
      <trkpt lat="45.99825" lon="4.52338">
        <ele>619.71</ele>
        <time>2016-12-11T09:44:04Z</time>
      </trkpt>
      <trkpt lat="45.99811" lon="4.52336">
        <ele>617.78</ele>
        <time>2016-12-11T09:44:18Z</time>
      </trkpt>
      <trkpt lat="45.99796" lon="4.52333">
        <ele>614.9</ele>
        <time>2016-12-11T09:44:33Z</time>
      </trkpt>
      <trkpt lat="45.99782" lon="4.5234">
        <ele>612.5</ele>
        <time>2016-12-11T09:44:47Z</time>
      </trkpt>
      <trkpt lat="45.99768" lon="4.52343">
        <ele>609.13</ele>
        <time>2016-12-11T09:45:00Z</time>
      </trkpt>
      <trkpt lat="45.9976" lon="4.52345">
        <ele>608.17</ele>
        <time>2016-12-11T09:45:07Z</time>
      </trkpt>
      <trkpt lat="45.99745" lon="4.52349">
        <ele>605.29</ele>
        <time>2016-12-11T09:45:23Z</time>
      </trkpt>
      <trkpt lat="45.99738" lon="4.52349">
        <ele>604.33</ele>
        <time>2016-12-11T09:45:29Z</time>
      </trkpt>
      <trkpt lat="45.99735" lon="4.52348">
        <ele>603.85</ele>
        <time>2016-12-11T09:45:31Z</time>
      </trkpt>
      <trkpt lat="45.99718" lon="4.52339">
        <ele>601.92</ele>
        <time>2016-12-11T09:45:48Z</time>
      </trkpt>
      <trkpt lat="45.99706" lon="4.52316">
        <ele>600</ele>
        <time>2016-12-11T09:46:05Z</time>
      </trkpt>
      <trkpt lat="45.99705" lon="4.52305">
        <ele>599.04</ele>
        <time>2016-12-11T09:46:12Z</time>
      </trkpt>
      <trkpt lat="45.99696" lon="4.52316">
        <ele>596.64</ele>
        <time>2016-12-11T09:46:25Z</time>
      </trkpt>
      <trkpt lat="45.99692" lon="4.52333">
        <ele>595.67</ele>
        <time>2016-12-11T09:46:37Z</time>
      </trkpt>
      <trkpt lat="45.99699" lon="4.5236">
        <ele>593.75</ele>
        <time>2016-12-11T09:46:54Z</time>
      </trkpt>
      <trkpt lat="45.99722" lon="4.52372">
        <ele>592.31</ele>
        <time>2016-12-11T09:47:16Z</time>
      </trkpt>
      <trkpt lat="45.99743" lon="4.52382">
        <ele>591.83</ele>
        <time>2016-12-11T09:47:33Z</time>
      </trkpt>
      <trkpt lat="45.99763" lon="4.52392">
        <ele>591.83</ele>
        <time>2016-12-11T09:47:50Z</time>
      </trkpt>
      <trkpt lat="45.99779" lon="4.52412">
        <ele>590.87</ele>
        <time>2016-12-11T09:48:09Z</time>
      </trkpt>
      <trkpt lat="45.99795" lon="4.52433">
        <ele>590.39</ele>
        <time>2016-12-11T09:48:26Z</time>
      </trkpt>
      <trkpt lat="45.998" lon="4.5244">
        <ele>590.39</ele>
        <time>2016-12-11T09:48:32Z</time>
      </trkpt>
      <trkpt lat="45.99804" lon="4.52479">
        <ele>590.87</ele>
        <time>2016-12-11T09:48:50Z</time>
      </trkpt>
      <trkpt lat="45.99803" lon="4.52491">
        <ele>591.83</ele>
        <time>2016-12-11T09:48:55Z</time>
      </trkpt>
      <trkpt lat="45.99802" lon="4.52518">
        <ele>594.23</ele>
        <time>2016-12-11T09:49:12Z</time>
      </trkpt>
      <trkpt lat="45.99801" lon="4.52539">
        <ele>596.15</ele>
        <time>2016-12-11T09:49:30Z</time>
      </trkpt>
      <trkpt lat="45.998" lon="4.52551">
        <ele>599.04</ele>
        <time>2016-12-11T09:49:42Z</time>
      </trkpt>
      <trkpt lat="45.998" lon="4.52557">
        <ele>600</ele>
        <time>2016-12-11T09:49:47Z</time>
      </trkpt>
      <trkpt lat="45.99797" lon="4.52575">
        <ele>602.4</ele>
        <time>2016-12-11T09:50:03Z</time>
      </trkpt>
      <trkpt lat="45.99794" lon="4.52595">
        <ele>605.77</ele>
        <time>2016-12-11T09:50:19Z</time>
      </trkpt>
      <trkpt lat="45.99793" lon="4.52612">
        <ele>608.17</ele>
        <time>2016-12-11T09:50:36Z</time>
      </trkpt>
      <trkpt lat="45.9979" lon="4.5263">
        <ele>610.09</ele>
        <time>2016-12-11T09:50:52Z</time>
      </trkpt>
      <trkpt lat="45.99786" lon="4.52654">
        <ele>612.02</ele>
        <time>2016-12-11T09:51:09Z</time>
      </trkpt>
      <trkpt lat="45.99782" lon="4.52675">
        <ele>614.9</ele>
        <time>2016-12-11T09:51:26Z</time>
      </trkpt>
      <trkpt lat="45.99776" lon="4.52697">
        <ele>617.3</ele>
        <time>2016-12-11T09:51:45Z</time>
      </trkpt>
      <trkpt lat="45.99774" lon="4.52704">
        <ele>618.26</ele>
        <time>2016-12-11T09:51:51Z</time>
      </trkpt>
      <trkpt lat="45.99772" lon="4.52727">
        <ele>620.67</ele>
        <time>2016-12-11T09:52:08Z</time>
      </trkpt>
      <trkpt lat="45.99771" lon="4.52751">
        <ele>623.55</ele>
        <time>2016-12-11T09:52:26Z</time>
      </trkpt>
      <trkpt lat="45.99769" lon="4.52772">
        <ele>625.47</ele>
        <time>2016-12-11T09:52:40Z</time>
      </trkpt>
      <trkpt lat="45.99771" lon="4.52792">
        <ele>627.4</ele>
        <time>2016-12-11T09:52:55Z</time>
      </trkpt>
      <trkpt lat="45.99773" lon="4.52818">
        <ele>629.8</ele>
        <time>2016-12-11T09:53:13Z</time>
      </trkpt>
      <trkpt lat="45.99775" lon="4.52843">
        <ele>632.68</ele>
        <time>2016-12-11T09:53:31Z</time>
      </trkpt>
      <trkpt lat="45.99778" lon="4.52866">
        <ele>633.65</ele>
        <time>2016-12-11T09:53:45Z</time>
      </trkpt>
      <trkpt lat="45.99782" lon="4.52888">
        <ele>634.61</ele>
        <time>2016-12-11T09:53:59Z</time>
      </trkpt>
      <trkpt lat="45.99783" lon="4.52891">
        <ele>634.61</ele>
        <time>2016-12-11T09:54:01Z</time>
      </trkpt>
      <trkpt lat="45.99788" lon="4.52919">
        <ele>635.09</ele>
        <time>2016-12-11T09:54:19Z</time>
      </trkpt>
      <trkpt lat="45.99794" lon="4.52942">
        <ele>636.53</ele>
        <time>2016-12-11T09:54:34Z</time>
      </trkpt>
      <trkpt lat="45.99801" lon="4.52968">
        <ele>637.49</ele>
        <time>2016-12-11T09:54:51Z</time>
      </trkpt>
      <trkpt lat="45.99804" lon="4.52981">
        <ele>638.45</ele>
        <time>2016-12-11T09:54:59Z</time>
      </trkpt>
      <trkpt lat="45.99814" lon="4.53003">
        <ele>638.45</ele>
        <time>2016-12-11T09:55:16Z</time>
      </trkpt>
      <trkpt lat="45.99816" lon="4.53004">
        <ele>637.49</ele>
        <time>2016-12-11T09:55:18Z</time>
      </trkpt>
      <trkpt lat="45.99825" lon="4.53001">
        <ele>636.05</ele>
        <time>2016-12-11T09:55:27Z</time>
      </trkpt>
      <trkpt lat="45.99844" lon="4.52989">
        <ele>636.05</ele>
        <time>2016-12-11T09:55:47Z</time>
      </trkpt>
      <trkpt lat="45.99863" lon="4.52983">
        <ele>635.57</ele>
        <time>2016-12-11T09:56:03Z</time>
      </trkpt>
      <trkpt lat="45.99884" lon="4.52981">
        <ele>635.57</ele>
        <time>2016-12-11T09:56:21Z</time>
      </trkpt>
      <trkpt lat="45.99893" lon="4.52981">
        <ele>635.57</ele>
        <time>2016-12-11T09:56:29Z</time>
      </trkpt>
      <trkpt lat="45.99904" lon="4.52981">
        <ele>634.61</ele>
        <time>2016-12-11T09:56:39Z</time>
      </trkpt>
      <trkpt lat="45.99925" lon="4.52984">
        <ele>632.68</ele>
        <time>2016-12-11T09:56:56Z</time>
      </trkpt>
      <trkpt lat="45.99933" lon="4.52991">
        <ele>631.24</ele>
        <time>2016-12-11T09:57:04Z</time>
      </trkpt>
      <trkpt lat="45.99942" lon="4.52999">
        <ele>632.68</ele>
        <time>2016-12-11T09:57:12Z</time>
      </trkpt>
      <trkpt lat="45.99946" lon="4.53003">
        <ele>632.68</ele>
        <time>2016-12-11T09:57:16Z</time>
      </trkpt>
      <trkpt lat="45.99964" lon="4.53026">
        <ele>633.17</ele>
        <time>2016-12-11T09:57:34Z</time>
      </trkpt>
      <trkpt lat="45.99974" lon="4.53056">
        <ele>634.13</ele>
        <time>2016-12-11T09:57:51Z</time>
      </trkpt>
      <trkpt lat="45.99981" lon="4.53093">
        <ele>635.57</ele>
        <time>2016-12-11T09:58:12Z</time>
      </trkpt>
      <trkpt lat="45.99993" lon="4.53127">
        <ele>636.53</ele>
        <time>2016-12-11T09:58:33Z</time>
      </trkpt>
      <trkpt lat="45.99999" lon="4.53157">
        <ele>637.49</ele>
        <time>2016-12-11T09:58:51Z</time>
      </trkpt>
      <trkpt lat="46" lon="4.53184">
        <ele>634.61</ele>
        <time>2016-12-11T09:59:07Z</time>
      </trkpt>
      <trkpt lat="46.00007" lon="4.53208">
        <ele>631.24</ele>
        <time>2016-12-11T09:59:24Z</time>
      </trkpt>
      <trkpt lat="46.00019" lon="4.53231">
        <ele>628.84</ele>
        <time>2016-12-11T09:59:42Z</time>
      </trkpt>
      <trkpt lat="46.00033" lon="4.53254">
        <ele>627.4</ele>
        <time>2016-12-11T10:00:00Z</time>
      </trkpt>
      <trkpt lat="46.00044" lon="4.5328">
        <ele>625.47</ele>
        <time>2016-12-11T10:00:19Z</time>
      </trkpt>
      <trkpt lat="46.00054" lon="4.53309">
        <ele>624.03</ele>
        <time>2016-12-11T10:00:37Z</time>
      </trkpt>
      <trkpt lat="46.0006" lon="4.53331">
        <ele>623.55</ele>
        <time>2016-12-11T10:00:52Z</time>
      </trkpt>
      <trkpt lat="46.00064" lon="4.53357">
        <ele>622.59</ele>
        <time>2016-12-11T10:01:07Z</time>
      </trkpt>
      <trkpt lat="46.00075" lon="4.53382">
        <ele>621.15</ele>
        <time>2016-12-11T10:01:24Z</time>
      </trkpt>
      <trkpt lat="46.00082" lon="4.53394">
        <ele>620.19</ele>
        <time>2016-12-11T10:01:34Z</time>
      </trkpt>
      <trkpt lat="46.00093" lon="4.53414">
        <ele>616.82</ele>
        <time>2016-12-11T10:01:50Z</time>
      </trkpt>
      <trkpt lat="46.00096" lon="4.5342">
        <ele>616.34</ele>
        <time>2016-12-11T10:01:55Z</time>
      </trkpt>
      <trkpt lat="46.0011" lon="4.53433">
        <ele>614.42</ele>
        <time>2016-12-11T10:02:11Z</time>
      </trkpt>
      <trkpt lat="46.00121" lon="4.53447">
        <ele>612.5</ele>
        <time>2016-12-11T10:02:25Z</time>
      </trkpt>
      <trkpt lat="46.0013" lon="4.53465">
        <ele>612.02</ele>
        <time>2016-12-11T10:02:38Z</time>
      </trkpt>
      <trkpt lat="46.00145" lon="4.53487">
        <ele>610.09</ele>
        <time>2016-12-11T10:02:56Z</time>
      </trkpt>
      <trkpt lat="46.00149" lon="4.5349">
        <ele>610.09</ele>
        <time>2016-12-11T10:03:00Z</time>
      </trkpt>
      <trkpt lat="46.0016" lon="4.53493">
        <ele>610.09</ele>
        <time>2016-12-11T10:03:10Z</time>
      </trkpt>
      <trkpt lat="46.0018" lon="4.53493">
        <ele>609.61</ele>
        <time>2016-12-11T10:03:27Z</time>
      </trkpt>
      <trkpt lat="46.00184" lon="4.53493">
        <ele>608.65</ele>
        <time>2016-12-11T10:03:31Z</time>
      </trkpt>
      <trkpt lat="46.00202" lon="4.53485">
        <ele>608.17</ele>
        <time>2016-12-11T10:03:46Z</time>
      </trkpt>
      <trkpt lat="46.00209" lon="4.53482">
        <ele>608.17</ele>
        <time>2016-12-11T10:03:52Z</time>
      </trkpt>
      <trkpt lat="46.00232" lon="4.53478">
        <ele>607.21</ele>
        <time>2016-12-11T10:04:09Z</time>
      </trkpt>
      <trkpt lat="46.00246" lon="4.53481">
        <ele>605.77</ele>
        <time>2016-12-11T10:04:24Z</time>
      </trkpt>
      <trkpt lat="46.00265" lon="4.53488">
        <ele>604.33</ele>
        <time>2016-12-11T10:04:41Z</time>
      </trkpt>
      <trkpt lat="46.00284" lon="4.53492">
        <ele>603.85</ele>
        <time>2016-12-11T10:04:56Z</time>
      </trkpt>
      <trkpt lat="46.00301" lon="4.53502">
        <ele>603.36</ele>
        <time>2016-12-11T10:05:09Z</time>
      </trkpt>
      <trkpt lat="46.0032" lon="4.53513">
        <ele>603.36</ele>
        <time>2016-12-11T10:05:24Z</time>
      </trkpt>
      <trkpt lat="46.00335" lon="4.53517">
        <ele>605.29</ele>
        <time>2016-12-11T10:05:38Z</time>
      </trkpt>
      <trkpt lat="46.00347" lon="4.53527">
        <ele>606.25</ele>
        <time>2016-12-11T10:05:51Z</time>
      </trkpt>
      <trkpt lat="46.00361" lon="4.53541">
        <ele>605.77</ele>
        <time>2016-12-11T10:06:02Z</time>
      </trkpt>
      <trkpt lat="46.00365" lon="4.53559">
        <ele>605.77</ele>
        <time>2016-12-11T10:06:10Z</time>
      </trkpt>
      <trkpt lat="46.00361" lon="4.5358">
        <ele>605.77</ele>
        <time>2016-12-11T10:06:23Z</time>
      </trkpt>
      <trkpt lat="46.00358" lon="4.53588">
        <ele>606.25</ele>
        <time>2016-12-11T10:06:28Z</time>
      </trkpt>
      <trkpt lat="46.00356" lon="4.53591">
        <ele>606.25</ele>
        <time>2016-12-11T10:06:30Z</time>
      </trkpt>
      <trkpt lat="46.00348" lon="4.53611">
        <ele>606.73</ele>
        <time>2016-12-11T10:06:42Z</time>
      </trkpt>
      <trkpt lat="46.00347" lon="4.53615">
        <ele>606.73</ele>
        <time>2016-12-11T10:06:44Z</time>
      </trkpt>
      <trkpt lat="46.00331" lon="4.53645">
        <ele>607.21</ele>
        <time>2016-12-11T10:07:02Z</time>
      </trkpt>
      <trkpt lat="46.00321" lon="4.53669">
        <ele>607.69</ele>
        <time>2016-12-11T10:07:17Z</time>
      </trkpt>
      <trkpt lat="46.00317" lon="4.53692">
        <ele>608.65</ele>
        <time>2016-12-11T10:07:33Z</time>
      </trkpt>
      <trkpt lat="46.00316" lon="4.53715">
        <ele>611.54</ele>
        <time>2016-12-11T10:07:50Z</time>
      </trkpt>
      <trkpt lat="46.00315" lon="4.53722">
        <ele>612.5</ele>
        <time>2016-12-11T10:07:55Z</time>
      </trkpt>
      <trkpt lat="46.00318" lon="4.53746">
        <ele>615.38</ele>
        <time>2016-12-11T10:08:10Z</time>
      </trkpt>
      <trkpt lat="46.00324" lon="4.53759">
        <ele>616.82</ele>
        <time>2016-12-11T10:08:24Z</time>
      </trkpt>
      <trkpt lat="46.00327" lon="4.5376">
        <ele>617.78</ele>
        <time>2016-12-11T10:08:28Z</time>
      </trkpt>
      <trkpt lat="46.00328" lon="4.53761">
        <ele>617.78</ele>
        <time>2016-12-11T10:08:29Z</time>
      </trkpt>
      <trkpt lat="46.00332" lon="4.53761">
        <ele>617.78</ele>
        <time>2016-12-11T10:08:42Z</time>
      </trkpt>
      <trkpt lat="46.00333" lon="4.53733">
        <ele>620.67</ele>
        <time>2016-12-11T10:09:01Z</time>
      </trkpt>
      <trkpt lat="46.0034" lon="4.53708">
        <ele>622.11</ele>
        <time>2016-12-11T10:09:17Z</time>
      </trkpt>
      <trkpt lat="46.00351" lon="4.53686">
        <ele>624.51</ele>
        <time>2016-12-11T10:09:33Z</time>
      </trkpt>
      <trkpt lat="46.00353" lon="4.53684">
        <ele>624.99</ele>
        <time>2016-12-11T10:09:35Z</time>
      </trkpt>
      <trkpt lat="46.00366" lon="4.53665">
        <ele>626.92</ele>
        <time>2016-12-11T10:09:51Z</time>
      </trkpt>
      <trkpt lat="46.00376" lon="4.53653">
        <ele>628.36</ele>
        <time>2016-12-11T10:10:05Z</time>
      </trkpt>
      <trkpt lat="46.00391" lon="4.53637">
        <ele>630.76</ele>
        <time>2016-12-11T10:10:22Z</time>
      </trkpt>
      <trkpt lat="46.00404" lon="4.53618">
        <ele>633.65</ele>
        <time>2016-12-11T10:10:40Z</time>
      </trkpt>
      <trkpt lat="46.00416" lon="4.53601">
        <ele>636.05</ele>
        <time>2016-12-11T10:10:56Z</time>
      </trkpt>
      <trkpt lat="46.00427" lon="4.53575">
        <ele>638.45</ele>
        <time>2016-12-11T10:11:14Z</time>
      </trkpt>
      <trkpt lat="46.00433" lon="4.5355">
        <ele>641.34</ele>
        <time>2016-12-11T10:11:33Z</time>
      </trkpt>
      <trkpt lat="46.00439" lon="4.53543">
        <ele>644.22</ele>
        <time>2016-12-11T10:11:49Z</time>
      </trkpt>
      <trkpt lat="46.00444" lon="4.53542">
        <ele>645.18</ele>
        <time>2016-12-11T10:12:06Z</time>
      </trkpt>
      <trkpt lat="46.00445" lon="4.53543">
        <ele>646.62</ele>
        <time>2016-12-11T10:12:10Z</time>
      </trkpt>
      <trkpt lat="46.00447" lon="4.53544">
        <ele>646.62</ele>
        <time>2016-12-11T10:12:12Z</time>
      </trkpt>
      <trkpt lat="46.00462" lon="4.53565">
        <ele>647.59</ele>
        <time>2016-12-11T10:12:30Z</time>
      </trkpt>
      <trkpt lat="46.00476" lon="4.53581">
        <ele>647.59</ele>
        <time>2016-12-11T10:12:48Z</time>
      </trkpt>
      <trkpt lat="46.00499" lon="4.53608">
        <ele>646.14</ele>
        <time>2016-12-11T10:13:12Z</time>
      </trkpt>
      <trkpt lat="46.00517" lon="4.53627">
        <ele>645.18</ele>
        <time>2016-12-11T10:13:29Z</time>
      </trkpt>
      <trkpt lat="46.0054" lon="4.53644">
        <ele>643.74</ele>
        <time>2016-12-11T10:13:50Z</time>
      </trkpt>
      <trkpt lat="46.00567" lon="4.53653">
        <ele>643.74</ele>
        <time>2016-12-11T10:14:11Z</time>
      </trkpt>
      <trkpt lat="46.00592" lon="4.53655">
        <ele>643.26</ele>
        <time>2016-12-11T10:14:31Z</time>
      </trkpt>
      <trkpt lat="46.00623" lon="4.53637">
        <ele>640.38</ele>
        <time>2016-12-11T10:27:06Z</time>
      </trkpt>
      <trkpt lat="46.00629" lon="4.53631">
        <ele>639.41</ele>
        <time>2016-12-11T10:27:15Z</time>
      </trkpt>
      <trkpt lat="46.00633" lon="4.53617">
        <ele>636.05</ele>
        <time>2016-12-11T10:27:29Z</time>
      </trkpt>
      <trkpt lat="46.00633" lon="4.53614">
        <ele>635.57</ele>
        <time>2016-12-11T10:27:32Z</time>
      </trkpt>
      <trkpt lat="46.00631" lon="4.53597">
        <ele>633.17</ele>
        <time>2016-12-11T10:27:43Z</time>
      </trkpt>
      <trkpt lat="46.00615" lon="4.536">
        <ele>633.65</ele>
        <time>2016-12-11T10:27:57Z</time>
      </trkpt>
      <trkpt lat="46.00592" lon="4.53609">
        <ele>635.57</ele>
        <time>2016-12-11T10:28:16Z</time>
      </trkpt>
      <trkpt lat="46.00572" lon="4.53612">
        <ele>636.53</ele>
        <time>2016-12-11T10:28:32Z</time>
      </trkpt>
      <trkpt lat="46.00548" lon="4.53607">
        <ele>637.97</ele>
        <time>2016-12-11T10:28:50Z</time>
      </trkpt>
      <trkpt lat="46.00527" lon="4.53592">
        <ele>639.89</ele>
        <time>2016-12-11T10:29:08Z</time>
      </trkpt>
      <trkpt lat="46.00507" lon="4.53574">
        <ele>641.82</ele>
        <time>2016-12-11T10:29:27Z</time>
      </trkpt>
      <trkpt lat="46.00488" lon="4.53557">
        <ele>643.74</ele>
        <time>2016-12-11T10:29:44Z</time>
      </trkpt>
      <trkpt lat="46.00485" lon="4.53555">
        <ele>644.22</ele>
        <time>2016-12-11T10:29:46Z</time>
      </trkpt>
      <trkpt lat="46.00483" lon="4.53547">
        <ele>644.7</ele>
        <time>2016-12-11T10:29:51Z</time>
      </trkpt>
      <trkpt lat="46.00489" lon="4.53542">
        <ele>643.26</ele>
        <time>2016-12-11T10:29:57Z</time>
      </trkpt>
      <trkpt lat="46.00509" lon="4.53529">
        <ele>640.86</ele>
        <time>2016-12-11T10:30:15Z</time>
      </trkpt>
      <trkpt lat="46.00529" lon="4.53513">
        <ele>638.45</ele>
        <time>2016-12-11T10:30:34Z</time>
      </trkpt>
      <trkpt lat="46.00546" lon="4.53498">
        <ele>636.05</ele>
        <time>2016-12-11T10:30:51Z</time>
      </trkpt>
      <trkpt lat="46.00561" lon="4.53482">
        <ele>634.13</ele>
        <time>2016-12-11T10:31:07Z</time>
      </trkpt>
      <trkpt lat="46.00578" lon="4.53461">
        <ele>631.24</ele>
        <time>2016-12-11T10:31:26Z</time>
      </trkpt>
      <trkpt lat="46.0059" lon="4.53441">
        <ele>630.28</ele>
        <time>2016-12-11T10:31:43Z</time>
      </trkpt>
      <trkpt lat="46.0061" lon="4.53416">
        <ele>628.36</ele>
        <time>2016-12-11T10:32:01Z</time>
      </trkpt>
      <trkpt lat="46.00628" lon="4.53405">
        <ele>626.44</ele>
        <time>2016-12-11T10:32:18Z</time>
      </trkpt>
      <trkpt lat="46.00647" lon="4.53392">
        <ele>624.99</ele>
        <time>2016-12-11T10:32:35Z</time>
      </trkpt>
      <trkpt lat="46.00665" lon="4.53375">
        <ele>623.55</ele>
        <time>2016-12-11T10:32:54Z</time>
      </trkpt>
      <trkpt lat="46.00681" lon="4.53357">
        <ele>621.63</ele>
        <time>2016-12-11T10:33:12Z</time>
      </trkpt>
      <trkpt lat="46.00698" lon="4.53341">
        <ele>620.19</ele>
        <time>2016-12-11T10:33:28Z</time>
      </trkpt>
      <trkpt lat="46.00715" lon="4.53326">
        <ele>617.78</ele>
        <time>2016-12-11T10:33:45Z</time>
      </trkpt>
      <trkpt lat="46.00733" lon="4.53308">
        <ele>615.86</ele>
        <time>2016-12-11T10:34:03Z</time>
      </trkpt>
      <trkpt lat="46.00751" lon="4.53292">
        <ele>613.46</ele>
        <time>2016-12-11T10:34:22Z</time>
      </trkpt>
      <trkpt lat="46.00772" lon="4.53277">
        <ele>611.06</ele>
        <time>2016-12-11T10:34:41Z</time>
      </trkpt>
      <trkpt lat="46.00796" lon="4.53262">
        <ele>609.13</ele>
        <time>2016-12-11T10:35:02Z</time>
      </trkpt>
      <trkpt lat="46.00817" lon="4.53241">
        <ele>608.17</ele>
        <time>2016-12-11T10:35:22Z</time>
      </trkpt>
      <trkpt lat="46.00827" lon="4.53232">
        <ele>607.21</ele>
        <time>2016-12-11T10:35:31Z</time>
      </trkpt>
      <trkpt lat="46.00847" lon="4.53218">
        <ele>604.81</ele>
        <time>2016-12-11T10:35:49Z</time>
      </trkpt>
      <trkpt lat="46.00868" lon="4.53202">
        <ele>602.88</ele>
        <time>2016-12-11T10:36:08Z</time>
      </trkpt>
      <trkpt lat="46.00883" lon="4.53192">
        <ele>600.48</ele>
        <time>2016-12-11T10:36:23Z</time>
      </trkpt>
      <trkpt lat="46.00902" lon="4.53184">
        <ele>596.64</ele>
        <time>2016-12-11T10:36:40Z</time>
      </trkpt>
      <trkpt lat="46.00911" lon="4.53182">
        <ele>595.19</ele>
        <time>2016-12-11T10:36:48Z</time>
      </trkpt>
      <trkpt lat="46.00931" lon="4.53177">
        <ele>593.27</ele>
        <time>2016-12-11T10:37:05Z</time>
      </trkpt>
      <trkpt lat="46.00933" lon="4.53177">
        <ele>592.79</ele>
        <time>2016-12-11T10:37:07Z</time>
      </trkpt>
      <trkpt lat="46.00953" lon="4.53171">
        <ele>589.91</ele>
        <time>2016-12-11T10:37:24Z</time>
      </trkpt>
      <trkpt lat="46.0097" lon="4.53163">
        <ele>587.98</ele>
        <time>2016-12-11T10:37:40Z</time>
      </trkpt>
      <trkpt lat="46.00991" lon="4.53156">
        <ele>585.1</ele>
        <time>2016-12-11T10:37:57Z</time>
      </trkpt>
      <trkpt lat="46.01009" lon="4.53153">
        <ele>582.7</ele>
        <time>2016-12-11T10:38:14Z</time>
      </trkpt>
      <trkpt lat="46.0103" lon="4.53149">
        <ele>580.29</ele>
        <time>2016-12-11T10:38:33Z</time>
      </trkpt>
      <trkpt lat="46.0105" lon="4.53154">
        <ele>578.37</ele>
        <time>2016-12-11T10:38:49Z</time>
      </trkpt>
      <trkpt lat="46.01077" lon="4.53158">
        <ele>576.93</ele>
        <time>2016-12-11T10:39:10Z</time>
      </trkpt>
      <trkpt lat="46.01098" lon="4.53163">
        <ele>575.97</ele>
        <time>2016-12-11T10:39:28Z</time>
      </trkpt>
      <trkpt lat="46.01117" lon="4.53169">
        <ele>575.01</ele>
        <time>2016-12-11T10:39:44Z</time>
      </trkpt>
      <trkpt lat="46.01137" lon="4.53175">
        <ele>575.01</ele>
        <time>2016-12-11T10:40:00Z</time>
      </trkpt>
      <trkpt lat="46.0116" lon="4.53178">
        <ele>575.01</ele>
        <time>2016-12-11T10:40:19Z</time>
      </trkpt>
      <trkpt lat="46.01171" lon="4.5318">
        <ele>575.01</ele>
        <time>2016-12-11T10:40:30Z</time>
      </trkpt>
      <trkpt lat="46.01173" lon="4.5318">
        <ele>576.45</ele>
        <time>2016-12-11T10:40:32Z</time>
      </trkpt>
      <trkpt lat="46.01192" lon="4.53182">
        <ele>577.89</ele>
        <time>2016-12-11T10:40:50Z</time>
      </trkpt>
      <trkpt lat="46.01213" lon="4.53183">
        <ele>578.37</ele>
        <time>2016-12-11T10:41:07Z</time>
      </trkpt>
      <trkpt lat="46.01231" lon="4.53182">
        <ele>578.37</ele>
        <time>2016-12-11T10:41:23Z</time>
      </trkpt>
      <trkpt lat="46.01245" lon="4.53181">
        <ele>576.93</ele>
        <time>2016-12-11T10:41:32Z</time>
      </trkpt>
      <trkpt lat="46.01273" lon="4.53178">
        <ele>576.45</ele>
        <time>2016-12-11T10:41:50Z</time>
      </trkpt>
      <trkpt lat="46.01295" lon="4.53175">
        <ele>575.97</ele>
        <time>2016-12-11T10:42:07Z</time>
      </trkpt>
      <trkpt lat="46.01313" lon="4.53167">
        <ele>575.97</ele>
        <time>2016-12-11T10:42:24Z</time>
      </trkpt>
      <trkpt lat="46.01341" lon="4.53162">
        <ele>574.04</ele>
        <time>2016-12-11T10:42:46Z</time>
      </trkpt>
      <trkpt lat="46.01369" lon="4.53157">
        <ele>572.12</ele>
        <time>2016-12-11T10:43:07Z</time>
      </trkpt>
      <trkpt lat="46.01395" lon="4.5315">
        <ele>571.16</ele>
        <time>2016-12-11T10:43:28Z</time>
      </trkpt>
      <trkpt lat="46.01416" lon="4.53145">
        <ele>569.72</ele>
        <time>2016-12-11T10:43:46Z</time>
      </trkpt>
      <trkpt lat="46.01438" lon="4.53137">
        <ele>568.76</ele>
        <time>2016-12-11T10:44:05Z</time>
      </trkpt>
      <trkpt lat="46.01458" lon="4.53129">
        <ele>567.32</ele>
        <time>2016-12-11T10:44:22Z</time>
      </trkpt>
      <trkpt lat="46.01479" lon="4.53121">
        <ele>564.91</ele>
        <time>2016-12-11T10:44:39Z</time>
      </trkpt>
      <trkpt lat="46.01499" lon="4.53111">
        <ele>563.95</ele>
        <time>2016-12-11T10:44:56Z</time>
      </trkpt>
      <trkpt lat="46.01505" lon="4.53108">
        <ele>563.47</ele>
        <time>2016-12-11T10:45:01Z</time>
      </trkpt>
      <trkpt lat="46.01518" lon="4.53101">
        <ele>562.03</ele>
        <time>2016-12-11T10:45:15Z</time>
      </trkpt>
      <trkpt lat="46.01534" lon="4.53094">
        <ele>559.62</ele>
        <time>2016-12-11T10:45:31Z</time>
      </trkpt>
      <trkpt lat="46.01555" lon="4.53106">
        <ele>557.22</ele>
        <time>2016-12-11T10:45:49Z</time>
      </trkpt>
      <trkpt lat="46.01568" lon="4.53118">
        <ele>554.34</ele>
        <time>2016-12-11T10:46:04Z</time>
      </trkpt>
      <trkpt lat="46.01575" lon="4.53136">
        <ele>550.97</ele>
        <time>2016-12-11T10:46:20Z</time>
      </trkpt>
      <trkpt lat="46.0158" lon="4.53149">
        <ele>547.61</ele>
        <time>2016-12-11T10:46:33Z</time>
      </trkpt>
      <trkpt lat="46.01584" lon="4.53164">
        <ele>544.72</ele>
        <time>2016-12-11T10:46:47Z</time>
      </trkpt>
      <trkpt lat="46.01586" lon="4.53177">
        <ele>541.84</ele>
        <time>2016-12-11T10:47:01Z</time>
      </trkpt>
      <trkpt lat="46.01589" lon="4.53191">
        <ele>538.96</ele>
        <time>2016-12-11T10:47:15Z</time>
      </trkpt>
      <trkpt lat="46.01589" lon="4.53205">
        <ele>535.59</ele>
        <time>2016-12-11T10:47:27Z</time>
      </trkpt>
      <trkpt lat="46.01596" lon="4.53218">
        <ele>532.71</ele>
        <time>2016-12-11T10:47:41Z</time>
      </trkpt>
      <trkpt lat="46.01603" lon="4.53225">
        <ele>529.34</ele>
        <time>2016-12-11T10:47:51Z</time>
      </trkpt>
      <trkpt lat="46.01614" lon="4.53233">
        <ele>525.98</ele>
        <time>2016-12-11T10:48:06Z</time>
      </trkpt>
      <trkpt lat="46.01619" lon="4.53256">
        <ele>522.13</ele>
        <time>2016-12-11T10:48:20Z</time>
      </trkpt>
      <trkpt lat="46.01626" lon="4.53255">
        <ele>519.25</ele>
        <time>2016-12-11T10:48:31Z</time>
      </trkpt>
      <trkpt lat="46.01641" lon="4.53252">
        <ele>515.88</ele>
        <time>2016-12-11T10:48:44Z</time>
      </trkpt>
      <trkpt lat="46.01658" lon="4.5325">
        <ele>512.52</ele>
        <time>2016-12-11T10:48:55Z</time>
      </trkpt>
      <trkpt lat="46.01659" lon="4.53249">
        <ele>512.52</ele>
        <time>2016-12-11T10:48:56Z</time>
      </trkpt>
      <trkpt lat="46.0167" lon="4.53242">
        <ele>510.6</ele>
        <time>2016-12-11T10:49:06Z</time>
      </trkpt>
      <trkpt lat="46.01688" lon="4.53229">
        <ele>507.23</ele>
        <time>2016-12-11T10:49:23Z</time>
      </trkpt>
      <trkpt lat="46.017" lon="4.53217">
        <ele>503.39</ele>
        <time>2016-12-11T10:49:36Z</time>
      </trkpt>
      <trkpt lat="46.01709" lon="4.53208">
        <ele>500.5</ele>
        <time>2016-12-11T10:49:48Z</time>
      </trkpt>
      <trkpt lat="46.01718" lon="4.53199">
        <ele>497.14</ele>
        <time>2016-12-11T10:50:01Z</time>
      </trkpt>
      <trkpt lat="46.01729" lon="4.53186">
        <ele>493.77</ele>
        <time>2016-12-11T10:50:15Z</time>
      </trkpt>
      <trkpt lat="46.01735" lon="4.53174">
        <ele>490.41</ele>
        <time>2016-12-11T10:50:28Z</time>
      </trkpt>
      <trkpt lat="46.0174" lon="4.53159">
        <ele>487.05</ele>
        <time>2016-12-11T10:50:41Z</time>
      </trkpt>
      <trkpt lat="46.01743" lon="4.53148">
        <ele>485.6</ele>
        <time>2016-12-11T10:50:48Z</time>
      </trkpt>
      <trkpt lat="46.01753" lon="4.53127">
        <ele>482.72</ele>
        <time>2016-12-11T10:51:03Z</time>
      </trkpt>
      <trkpt lat="46.01763" lon="4.53123">
        <ele>480.8</ele>
        <time>2016-12-11T10:51:14Z</time>
      </trkpt>
      <trkpt lat="46.01787" lon="4.53122">
        <ele>479.84</ele>
        <time>2016-12-11T10:51:30Z</time>
      </trkpt>
      <trkpt lat="46.01794" lon="4.53121">
        <ele>479.35</ele>
        <time>2016-12-11T10:51:34Z</time>
      </trkpt>
      <trkpt lat="46.01815" lon="4.5312">
        <ele>478.87</ele>
        <time>2016-12-11T10:51:51Z</time>
      </trkpt>
      <trkpt lat="46.01826" lon="4.53118">
        <ele>477.91</ele>
        <time>2016-12-11T10:52:01Z</time>
      </trkpt>
      <trkpt lat="46.01847" lon="4.53102">
        <ele>476.47</ele>
        <time>2016-12-11T10:52:19Z</time>
      </trkpt>
      <trkpt lat="46.01861" lon="4.53081">
        <ele>476.47</ele>
        <time>2016-12-11T10:52:36Z</time>
      </trkpt>
      <trkpt lat="46.01864" lon="4.53075">
        <ele>476.47</ele>
        <time>2016-12-11T10:52:40Z</time>
      </trkpt>
      <trkpt lat="46.01875" lon="4.53043">
        <ele>475.03</ele>
        <time>2016-12-11T10:53:00Z</time>
      </trkpt>
      <trkpt lat="46.01884" lon="4.53012">
        <ele>473.59</ele>
        <time>2016-12-11T10:53:18Z</time>
      </trkpt>
      <trkpt lat="46.01891" lon="4.52984">
        <ele>472.63</ele>
        <time>2016-12-11T10:53:34Z</time>
      </trkpt>
      <trkpt lat="46.01899" lon="4.52956">
        <ele>469.74</ele>
        <time>2016-12-11T10:53:50Z</time>
      </trkpt>
      <trkpt lat="46.0191" lon="4.52931">
        <ele>467.34</ele>
        <time>2016-12-11T10:54:07Z</time>
      </trkpt>
      <trkpt lat="46.01924" lon="4.52908">
        <ele>464.45</ele>
        <time>2016-12-11T10:54:24Z</time>
      </trkpt>
      <trkpt lat="46.01934" lon="4.52895">
        <ele>461.57</ele>
        <time>2016-12-11T10:54:36Z</time>
      </trkpt>
      <trkpt lat="46.01938" lon="4.52881">
        <ele>458.21</ele>
        <time>2016-12-11T10:54:46Z</time>
      </trkpt>
      <trkpt lat="46.0195" lon="4.52863">
        <ele>454.84</ele>
        <time>2016-12-11T10:54:57Z</time>
      </trkpt>
      <trkpt lat="46.01961" lon="4.52843">
        <ele>451.48</ele>
        <time>2016-12-11T10:55:11Z</time>
      </trkpt>
      <trkpt lat="46.01964" lon="4.52839">
        <ele>451</ele>
        <time>2016-12-11T10:55:14Z</time>
      </trkpt>
      <trkpt lat="46.01967" lon="4.52833">
        <ele>449.55</ele>
        <time>2016-12-11T10:55:18Z</time>
      </trkpt>
      <trkpt lat="46.01979" lon="4.52812">
        <ele>446.67</ele>
        <time>2016-12-11T10:55:33Z</time>
      </trkpt>
      <trkpt lat="46.01984" lon="4.528">
        <ele>444.75</ele>
        <time>2016-12-11T10:55:42Z</time>
      </trkpt>
      <trkpt lat="46.01993" lon="4.52783">
        <ele>440.9</ele>
        <time>2016-12-11T10:55:56Z</time>
      </trkpt>
      <trkpt lat="46.02" lon="4.52763">
        <ele>437.54</ele>
        <time>2016-12-11T10:56:12Z</time>
      </trkpt>
      <trkpt lat="46.0201" lon="4.52743">
        <ele>434.17</ele>
        <time>2016-12-11T10:56:26Z</time>
      </trkpt>
      <trkpt lat="46.02021" lon="4.52726">
        <ele>430.81</ele>
        <time>2016-12-11T10:56:41Z</time>
      </trkpt>
      <trkpt lat="46.02027" lon="4.52721">
        <ele>429.37</ele>
        <time>2016-12-11T10:56:47Z</time>
      </trkpt>
      <trkpt lat="46.02038" lon="4.52711">
        <ele>426.48</ele>
        <time>2016-12-11T10:57:00Z</time>
      </trkpt>
      <trkpt lat="46.0205" lon="4.52695">
        <ele>423.12</ele>
        <time>2016-12-11T10:57:15Z</time>
      </trkpt>
      <trkpt lat="46.02057" lon="4.52676">
        <ele>419.75</ele>
        <time>2016-12-11T10:57:27Z</time>
      </trkpt>
      <trkpt lat="46.02063" lon="4.52657">
        <ele>416.87</ele>
        <time>2016-12-11T10:57:43Z</time>
      </trkpt>
      <trkpt lat="46.02065" lon="4.52636">
        <ele>413.5</ele>
        <time>2016-12-11T10:57:57Z</time>
      </trkpt>
      <trkpt lat="46.02063" lon="4.52627">
        <ele>411.1</ele>
        <time>2016-12-11T10:58:07Z</time>
      </trkpt>
      <trkpt lat="46.0206" lon="4.52608">
        <ele>407.74</ele>
        <time>2016-12-11T10:58:21Z</time>
      </trkpt>
      <trkpt lat="46.02058" lon="4.52592">
        <ele>406.29</ele>
        <time>2016-12-11T10:58:29Z</time>
      </trkpt>
      <trkpt lat="46.02057" lon="4.52586">
        <ele>404.85</ele>
        <time>2016-12-11T10:58:32Z</time>
      </trkpt>
      <trkpt lat="46.02051" lon="4.52564">
        <ele>402.45</ele>
        <time>2016-12-11T10:58:43Z</time>
      </trkpt>
      <trkpt lat="46.02052" lon="4.52535">
        <ele>400.53</ele>
        <time>2016-12-11T10:59:00Z</time>
      </trkpt>
      <trkpt lat="46.02055" lon="4.52498">
        <ele>399.08</ele>
        <time>2016-12-11T10:59:19Z</time>
      </trkpt>
      <trkpt lat="46.02068" lon="4.5247">
        <ele>399.08</ele>
        <time>2016-12-11T10:59:34Z</time>
      </trkpt>
      <trkpt lat="46.02089" lon="4.52452">
        <ele>400.53</ele>
        <time>2016-12-11T10:59:52Z</time>
      </trkpt>
      <trkpt lat="46.0209" lon="4.52451">
        <ele>400.53</ele>
        <time>2016-12-11T10:59:53Z</time>
      </trkpt>
      <trkpt lat="46.02108" lon="4.52432">
        <ele>401.49</ele>
        <time>2016-12-11T11:00:10Z</time>
      </trkpt>
      <trkpt lat="46.02128" lon="4.52414">
        <ele>402.45</ele>
        <time>2016-12-11T11:00:27Z</time>
      </trkpt>
      <trkpt lat="46.02148" lon="4.52398">
        <ele>403.89</ele>
        <time>2016-12-11T11:00:44Z</time>
      </trkpt>
      <trkpt lat="46.02177" lon="4.52379">
        <ele>404.85</ele>
        <time>2016-12-11T11:01:08Z</time>
      </trkpt>
      <trkpt lat="46.02193" lon="4.52362">
        <ele>404.85</ele>
        <time>2016-12-11T11:01:25Z</time>
      </trkpt>
      <trkpt lat="46.02195" lon="4.52341">
        <ele>407.74</ele>
        <time>2016-12-11T11:01:42Z</time>
      </trkpt>
      <trkpt lat="46.02188" lon="4.5232">
        <ele>410.14</ele>
        <time>2016-12-11T11:01:59Z</time>
      </trkpt>
      <trkpt lat="46.02177" lon="4.52305">
        <ele>413.5</ele>
        <time>2016-12-11T11:02:16Z</time>
      </trkpt>
      <trkpt lat="46.02168" lon="4.5229">
        <ele>416.39</ele>
        <time>2016-12-11T11:02:33Z</time>
      </trkpt>
      <trkpt lat="46.02155" lon="4.52276">
        <ele>418.79</ele>
        <time>2016-12-11T11:02:51Z</time>
      </trkpt>
      <trkpt lat="46.02145" lon="4.52269">
        <ele>421.19</ele>
        <time>2016-12-11T11:03:08Z</time>
      </trkpt>
      <trkpt lat="46.02135" lon="4.52271">
        <ele>424.56</ele>
        <time>2016-12-11T11:03:22Z</time>
      </trkpt>
      <trkpt lat="46.02119" lon="4.52274">
        <ele>426.96</ele>
        <time>2016-12-11T11:03:38Z</time>
      </trkpt>
      <trkpt lat="46.02115" lon="4.52275">
        <ele>427.44</ele>
        <time>2016-12-11T11:03:42Z</time>
      </trkpt>
      <trkpt lat="46.02096" lon="4.52279">
        <ele>429.85</ele>
        <time>2016-12-11T11:04:01Z</time>
      </trkpt>
      <trkpt lat="46.0208" lon="4.52283">
        <ele>431.77</ele>
        <time>2016-12-11T11:04:18Z</time>
      </trkpt>
      <trkpt lat="46.02066" lon="4.52282">
        <ele>434.17</ele>
        <time>2016-12-11T11:04:35Z</time>
      </trkpt>
      <trkpt lat="46.02051" lon="4.52279">
        <ele>437.06</ele>
        <time>2016-12-11T11:04:53Z</time>
      </trkpt>
      <trkpt lat="46.02041" lon="4.52268">
        <ele>439.94</ele>
        <time>2016-12-11T11:05:11Z</time>
      </trkpt>
      <trkpt lat="46.02037" lon="4.52253">
        <ele>443.31</ele>
        <time>2016-12-11T11:05:27Z</time>
      </trkpt>
      <trkpt lat="46.02035" lon="4.52241">
        <ele>445.23</ele>
        <time>2016-12-11T11:05:42Z</time>
      </trkpt>
      <trkpt lat="46.02029" lon="4.52223">
        <ele>448.11</ele>
        <time>2016-12-11T11:06:00Z</time>
      </trkpt>
      <trkpt lat="46.02023" lon="4.52205">
        <ele>450.03</ele>
        <time>2016-12-11T11:06:17Z</time>
      </trkpt>
      <trkpt lat="46.02014" lon="4.5219">
        <ele>452.44</ele>
        <time>2016-12-11T11:06:32Z</time>
      </trkpt>
      <trkpt lat="46.02014" lon="4.52189">
        <ele>452.44</ele>
        <time>2016-12-11T11:06:33Z</time>
      </trkpt>
      <trkpt lat="46.02009" lon="4.52165">
        <ele>453.88</ele>
        <time>2016-12-11T11:06:50Z</time>
      </trkpt>
      <trkpt lat="46.02" lon="4.52135">
        <ele>455.8</ele>
        <time>2016-12-11T11:07:09Z</time>
      </trkpt>
      <trkpt lat="46.01993" lon="4.52115">
        <ele>456.28</ele>
        <time>2016-12-11T11:07:24Z</time>
      </trkpt>
      <trkpt lat="46.01983" lon="4.52089">
        <ele>457.24</ele>
        <time>2016-12-11T11:07:41Z</time>
      </trkpt>
      <trkpt lat="46.01979" lon="4.5206">
        <ele>457.72</ele>
        <time>2016-12-11T11:07:58Z</time>
      </trkpt>
      <trkpt lat="46.01979" lon="4.52049">
        <ele>458.21</ele>
        <time>2016-12-11T11:08:05Z</time>
      </trkpt>
      <trkpt lat="46.01991" lon="4.52025">
        <ele>460.13</ele>
        <time>2016-12-11T11:08:24Z</time>
      </trkpt>
      <trkpt lat="46.02007" lon="4.52025">
        <ele>462.53</ele>
        <time>2016-12-11T11:08:41Z</time>
      </trkpt>
      <trkpt lat="46.02024" lon="4.52012">
        <ele>464.93</ele>
        <time>2016-12-11T11:09:00Z</time>
      </trkpt>
      <trkpt lat="46.02025" lon="4.52011">
        <ele>465.42</ele>
        <time>2016-12-11T11:09:01Z</time>
      </trkpt>
      <trkpt lat="46.02036" lon="4.51991">
        <ele>466.86</ele>
        <time>2016-12-11T11:09:18Z</time>
      </trkpt>
      <trkpt lat="46.02048" lon="4.51969">
        <ele>469.26</ele>
        <time>2016-12-11T11:09:36Z</time>
      </trkpt>
      <trkpt lat="46.02054" lon="4.51951">
        <ele>471.66</ele>
        <time>2016-12-11T11:09:52Z</time>
      </trkpt>
      <trkpt lat="46.02061" lon="4.51927">
        <ele>473.11</ele>
        <time>2016-12-11T11:10:08Z</time>
      </trkpt>
      <trkpt lat="46.02076" lon="4.51908">
        <ele>475.51</ele>
        <time>2016-12-11T11:10:27Z</time>
      </trkpt>
      <trkpt lat="46.02093" lon="4.5189">
        <ele>477.91</ele>
        <time>2016-12-11T11:10:47Z</time>
      </trkpt>
      <trkpt lat="46.02096" lon="4.51885">
        <ele>478.39</ele>
        <time>2016-12-11T11:10:51Z</time>
      </trkpt>
      <trkpt lat="46.02112" lon="4.51873">
        <ele>480.32</ele>
        <time>2016-12-11T11:11:08Z</time>
      </trkpt>
      <trkpt lat="46.02114" lon="4.51871">
        <ele>480.32</ele>
        <time>2016-12-11T11:11:10Z</time>
      </trkpt>
      <trkpt lat="46.02129" lon="4.51854">
        <ele>483.2</ele>
        <time>2016-12-11T11:11:27Z</time>
      </trkpt>
      <trkpt lat="46.02144" lon="4.51834">
        <ele>484.64</ele>
        <time>2016-12-11T11:11:46Z</time>
      </trkpt>
      <trkpt lat="46.02157" lon="4.51812">
        <ele>485.6</ele>
        <time>2016-12-11T11:12:03Z</time>
      </trkpt>
      <trkpt lat="46.02163" lon="4.51785">
        <ele>486.56</ele>
        <time>2016-12-11T11:12:21Z</time>
      </trkpt>
      <trkpt lat="46.02165" lon="4.51755">
        <ele>487.53</ele>
        <time>2016-12-11T11:12:38Z</time>
      </trkpt>
      <trkpt lat="46.02161" lon="4.51731">
        <ele>487.53</ele>
        <time>2016-12-11T11:12:54Z</time>
      </trkpt>
      <trkpt lat="46.02152" lon="4.51706">
        <ele>488.01</ele>
        <time>2016-12-11T11:13:11Z</time>
      </trkpt>
      <trkpt lat="46.02144" lon="4.51684">
        <ele>488.01</ele>
        <time>2016-12-11T11:13:25Z</time>
      </trkpt>
      <trkpt lat="46.02133" lon="4.51661">
        <ele>487.05</ele>
        <time>2016-12-11T11:13:44Z</time>
      </trkpt>
      <trkpt lat="46.02125" lon="4.51632">
        <ele>486.08</ele>
        <time>2016-12-11T11:14:02Z</time>
      </trkpt>
      <trkpt lat="46.02117" lon="4.51606">
        <ele>485.6</ele>
        <time>2016-12-11T11:14:18Z</time>
      </trkpt>
      <trkpt lat="46.02109" lon="4.51576">
        <ele>485.12</ele>
        <time>2016-12-11T11:14:36Z</time>
      </trkpt>
      <trkpt lat="46.02101" lon="4.51551">
        <ele>484.64</ele>
        <time>2016-12-11T11:14:54Z</time>
      </trkpt>
      <trkpt lat="46.02095" lon="4.5153">
        <ele>484.64</ele>
        <time>2016-12-11T11:15:06Z</time>
      </trkpt>
      <trkpt lat="46.02086" lon="4.51497">
        <ele>484.64</ele>
        <time>2016-12-11T11:15:24Z</time>
      </trkpt>
      <trkpt lat="46.02084" lon="4.51487">
        <ele>486.08</ele>
        <time>2016-12-11T11:15:30Z</time>
      </trkpt>
      <trkpt lat="46.02077" lon="4.51452">
        <ele>488.49</ele>
        <time>2016-12-11T11:15:52Z</time>
      </trkpt>
      <trkpt lat="46.02077" lon="4.51429">
        <ele>491.37</ele>
        <time>2016-12-11T11:16:08Z</time>
      </trkpt>
      <trkpt lat="46.02088" lon="4.51401">
        <ele>494.74</ele>
        <time>2016-12-11T11:16:26Z</time>
      </trkpt>
      <trkpt lat="46.02085" lon="4.51398">
        <ele>496.18</ele>
        <time>2016-12-11T11:16:33Z</time>
      </trkpt>
      <trkpt lat="46.02069" lon="4.51412">
        <ele>497.62</ele>
        <time>2016-12-11T11:16:49Z</time>
      </trkpt>
      <trkpt lat="46.02054" lon="4.51431">
        <ele>499.54</ele>
        <time>2016-12-11T11:17:06Z</time>
      </trkpt>
      <trkpt lat="46.02039" lon="4.51448">
        <ele>501.46</ele>
        <time>2016-12-11T11:17:23Z</time>
      </trkpt>
      <trkpt lat="46.02023" lon="4.51465">
        <ele>502.91</ele>
        <time>2016-12-11T11:17:40Z</time>
      </trkpt>
      <trkpt lat="46.02007" lon="4.51481">
        <ele>504.83</ele>
        <time>2016-12-11T11:17:58Z</time>
      </trkpt>
      <trkpt lat="46.01991" lon="4.51496">
        <ele>506.75</ele>
        <time>2016-12-11T11:18:15Z</time>
      </trkpt>
      <trkpt lat="46.01972" lon="4.51507">
        <ele>507.71</ele>
        <time>2016-12-11T11:18:32Z</time>
      </trkpt>
      <trkpt lat="46.01953" lon="4.51512">
        <ele>509.16</ele>
        <time>2016-12-11T11:18:49Z</time>
      </trkpt>
      <trkpt lat="46.01948" lon="4.51513">
        <ele>509.64</ele>
        <time>2016-12-11T11:18:53Z</time>
      </trkpt>
      <trkpt lat="46.01943" lon="4.51512">
        <ele>509.64</ele>
        <time>2016-12-11T11:18:57Z</time>
      </trkpt>
      <trkpt lat="46.01922" lon="4.51506">
        <ele>511.56</ele>
        <time>2016-12-11T11:19:15Z</time>
      </trkpt>
      <trkpt lat="46.01908" lon="4.51487">
        <ele>513</ele>
        <time>2016-12-11T11:19:31Z</time>
      </trkpt>
      <trkpt lat="46.01893" lon="4.51464">
        <ele>514.44</ele>
        <time>2016-12-11T11:19:50Z</time>
      </trkpt>
      <trkpt lat="46.01878" lon="4.51446">
        <ele>515.88</ele>
        <time>2016-12-11T11:20:07Z</time>
      </trkpt>
      <trkpt lat="46.01869" lon="4.5144">
        <ele>516.85</ele>
        <time>2016-12-11T11:20:16Z</time>
      </trkpt>
      <trkpt lat="46.01864" lon="4.51455">
        <ele>519.25</ele>
        <time>2016-12-11T11:20:31Z</time>
      </trkpt>
      <trkpt lat="46.01864" lon="4.51476">
        <ele>521.17</ele>
        <time>2016-12-11T11:20:46Z</time>
      </trkpt>
      <trkpt lat="46.01864" lon="4.51497">
        <ele>523.58</ele>
        <time>2016-12-11T11:21:03Z</time>
      </trkpt>
      <trkpt lat="46.01867" lon="4.51521">
        <ele>526.46</ele>
        <time>2016-12-11T11:21:21Z</time>
      </trkpt>
      <trkpt lat="46.01864" lon="4.51544">
        <ele>528.38</ele>
        <time>2016-12-11T11:21:39Z</time>
      </trkpt>
      <trkpt lat="46.01859" lon="4.51565">
        <ele>530.3</ele>
        <time>2016-12-11T11:21:57Z</time>
      </trkpt>
      <trkpt lat="46.01855" lon="4.51584">
        <ele>533.19</ele>
        <time>2016-12-11T11:22:15Z</time>
      </trkpt>
      <trkpt lat="46.01853" lon="4.51603">
        <ele>536.07</ele>
        <time>2016-12-11T11:22:32Z</time>
      </trkpt>
      <trkpt lat="46.01852" lon="4.51624">
        <ele>539.44</ele>
        <time>2016-12-11T11:22:51Z</time>
      </trkpt>
      <trkpt lat="46.01857" lon="4.51642">
        <ele>542.32</ele>
        <time>2016-12-11T11:23:09Z</time>
      </trkpt>
      <trkpt lat="46.0186" lon="4.51663">
        <ele>543.76</ele>
        <time>2016-12-11T11:23:25Z</time>
      </trkpt>
      <trkpt lat="46.01859" lon="4.51683">
        <ele>544.72</ele>
        <time>2016-12-11T11:23:40Z</time>
      </trkpt>
      <trkpt lat="46.01849" lon="4.51695">
        <ele>546.65</ele>
        <time>2016-12-11T11:23:53Z</time>
      </trkpt>
      <trkpt lat="46.01837" lon="4.51709">
        <ele>548.57</ele>
        <time>2016-12-11T11:24:10Z</time>
      </trkpt>
      <trkpt lat="46.01826" lon="4.51711">
        <ele>550.49</ele>
        <time>2016-12-11T11:24:26Z</time>
      </trkpt>
      <trkpt lat="46.01818" lon="4.51707">
        <ele>552.41</ele>
        <time>2016-12-11T11:24:43Z</time>
      </trkpt>
      <trkpt lat="46.01806" lon="4.517">
        <ele>555.3</ele>
        <time>2016-12-11T11:25:02Z</time>
      </trkpt>
      <trkpt lat="46.01798" lon="4.51693">
        <ele>557.22</ele>
        <time>2016-12-11T11:25:21Z</time>
      </trkpt>
      <trkpt lat="46.01791" lon="4.51691">
        <ele>558.18</ele>
        <time>2016-12-11T11:25:47Z</time>
      </trkpt>
      <trkpt lat="46.01779" lon="4.51685">
        <ele>561.07</ele>
        <time>2016-12-11T11:26:05Z</time>
      </trkpt>
      <trkpt lat="46.01767" lon="4.5168">
        <ele>563.95</ele>
        <time>2016-12-11T11:26:25Z</time>
      </trkpt>
      <trkpt lat="46.01757" lon="4.51678">
        <ele>566.83</ele>
        <time>2016-12-11T11:26:46Z</time>
      </trkpt>
      <trkpt lat="46.01748" lon="4.51679">
        <ele>569.24</ele>
        <time>2016-12-11T11:27:06Z</time>
      </trkpt>
      <trkpt lat="46.01738" lon="4.5168">
        <ele>572.12</ele>
        <time>2016-12-11T11:27:24Z</time>
      </trkpt>
      <trkpt lat="46.0173" lon="4.51676">
        <ele>575.01</ele>
        <time>2016-12-11T11:27:39Z</time>
      </trkpt>
      <trkpt lat="46.01716" lon="4.51668">
        <ele>576.93</ele>
        <time>2016-12-11T11:27:53Z</time>
      </trkpt>
      <trkpt lat="46.01702" lon="4.51662">
        <ele>578.37</ele>
        <time>2016-12-11T11:28:08Z</time>
      </trkpt>
      <trkpt lat="46.0169" lon="4.51662">
        <ele>578.37</ele>
        <time>2016-12-11T11:28:23Z</time>
      </trkpt>
      <trkpt lat="46.01681" lon="4.51653">
        <ele>578.37</ele>
        <time>2016-12-11T11:28:34Z</time>
      </trkpt>
      <trkpt lat="46.01668" lon="4.51633">
        <ele>578.37</ele>
        <time>2016-12-11T11:28:50Z</time>
      </trkpt>
      <trkpt lat="46.01666" lon="4.51613">
        <ele>578.37</ele>
        <time>2016-12-11T11:29:07Z</time>
      </trkpt>
      <trkpt lat="46.01668" lon="4.51608">
        <ele>578.85</ele>
        <time>2016-12-11T11:29:10Z</time>
      </trkpt>
      <trkpt lat="46.01668" lon="4.51601">
        <ele>578.85</ele>
        <time>2016-12-11T11:29:14Z</time>
      </trkpt>
      <trkpt lat="46.01668" lon="4.51597">
        <ele>578.85</ele>
        <time>2016-12-11T11:29:16Z</time>
      </trkpt>
      <trkpt lat="46.01668" lon="4.51575">
        <ele>578.85</ele>
        <time>2016-12-11T11:29:32Z</time>
      </trkpt>
      <trkpt lat="46.01668" lon="4.51568">
        <ele>577.41</ele>
        <time>2016-12-11T11:29:37Z</time>
      </trkpt>
      <trkpt lat="46.01667" lon="4.51546">
        <ele>574.53</ele>
        <time>2016-12-11T11:29:55Z</time>
      </trkpt>
      <trkpt lat="46.01667" lon="4.51527">
        <ele>571.16</ele>
        <time>2016-12-11T11:30:11Z</time>
      </trkpt>
      <trkpt lat="46.01665" lon="4.51504">
        <ele>568.76</ele>
        <time>2016-12-11T11:30:29Z</time>
      </trkpt>
      <trkpt lat="46.01665" lon="4.51484">
        <ele>565.39</ele>
        <time>2016-12-11T11:30:43Z</time>
      </trkpt>
      <trkpt lat="46.01665" lon="4.51468">
        <ele>562.51</ele>
        <time>2016-12-11T11:30:58Z</time>
      </trkpt>
      <trkpt lat="46.01664" lon="4.51447">
        <ele>559.62</ele>
        <time>2016-12-11T11:31:15Z</time>
      </trkpt>
      <trkpt lat="46.01667" lon="4.51422">
        <ele>556.26</ele>
        <time>2016-12-11T11:31:31Z</time>
      </trkpt>
      <trkpt lat="46.01667" lon="4.51403">
        <ele>553.38</ele>
        <time>2016-12-11T11:31:46Z</time>
      </trkpt>
      <trkpt lat="46.01666" lon="4.51382">
        <ele>550.01</ele>
        <time>2016-12-11T11:32:04Z</time>
      </trkpt>
      <trkpt lat="46.01662" lon="4.51365">
        <ele>547.13</ele>
        <time>2016-12-11T11:32:20Z</time>
      </trkpt>
      <trkpt lat="46.01661" lon="4.51341">
        <ele>544.72</ele>
        <time>2016-12-11T11:32:37Z</time>
      </trkpt>
      <trkpt lat="46.01663" lon="4.51315">
        <ele>542.32</ele>
        <time>2016-12-11T11:32:53Z</time>
      </trkpt>
      <trkpt lat="46.01662" lon="4.51288">
        <ele>540.4</ele>
        <time>2016-12-11T11:33:10Z</time>
      </trkpt>
      <trkpt lat="46.01663" lon="4.51262">
        <ele>538.48</ele>
        <time>2016-12-11T11:33:27Z</time>
      </trkpt>
      <trkpt lat="46.01664" lon="4.5124">
        <ele>536.55</ele>
        <time>2016-12-11T11:33:40Z</time>
      </trkpt>
      <trkpt lat="46.01666" lon="4.51209">
        <ele>536.07</ele>
        <time>2016-12-11T11:33:57Z</time>
      </trkpt>
      <trkpt lat="46.01669" lon="4.51186">
        <ele>537.51</ele>
        <time>2016-12-11T11:34:10Z</time>
      </trkpt>
      <trkpt lat="46.01668" lon="4.51158">
        <ele>539.44</ele>
        <time>2016-12-11T11:34:28Z</time>
      </trkpt>
      <trkpt lat="46.01668" lon="4.51121">
        <ele>540.88</ele>
        <time>2016-12-11T11:34:49Z</time>
      </trkpt>
      <trkpt lat="46.01667" lon="4.51109">
        <ele>540.88</ele>
        <time>2016-12-11T11:34:57Z</time>
      </trkpt>
      <trkpt lat="46.01667" lon="4.51076">
        <ele>540.88</ele>
        <time>2016-12-11T11:35:16Z</time>
      </trkpt>
      <trkpt lat="46.01668" lon="4.5107">
        <ele>540.88</ele>
        <time>2016-12-11T11:35:20Z</time>
      </trkpt>
      <trkpt lat="46.01673" lon="4.51057">
        <ele>539.44</ele>
        <time>2016-12-11T11:35:28Z</time>
      </trkpt>
      <trkpt lat="46.01689" lon="4.5104">
        <ele>537.03</ele>
        <time>2016-12-11T11:35:46Z</time>
      </trkpt>
      <trkpt lat="46.01706" lon="4.51022">
        <ele>534.15</ele>
        <time>2016-12-11T11:36:06Z</time>
      </trkpt>
      <trkpt lat="46.01708" lon="4.51019">
        <ele>533.67</ele>
        <time>2016-12-11T11:36:09Z</time>
      </trkpt>
      <trkpt lat="46.01711" lon="4.51013">
        <ele>533.67</ele>
        <time>2016-12-11T11:36:13Z</time>
      </trkpt>
      <trkpt lat="46.01723" lon="4.50987">
        <ele>532.23</ele>
        <time>2016-12-11T11:36:31Z</time>
      </trkpt>
      <trkpt lat="46.01733" lon="4.50961">
        <ele>529.82</ele>
        <time>2016-12-11T11:36:50Z</time>
      </trkpt>
      <trkpt lat="46.01741" lon="4.50937">
        <ele>526.94</ele>
        <time>2016-12-11T11:37:07Z</time>
      </trkpt>
      <trkpt lat="46.01751" lon="4.50908">
        <ele>523.58</ele>
        <time>2016-12-11T11:37:27Z</time>
      </trkpt>
      <trkpt lat="46.0176" lon="4.50888">
        <ele>520.21</ele>
        <time>2016-12-11T11:37:44Z</time>
      </trkpt>
      <trkpt lat="46.01774" lon="4.5087">
        <ele>517.33</ele>
        <time>2016-12-11T11:38:02Z</time>
      </trkpt>
      <trkpt lat="46.01784" lon="4.50857">
        <ele>513.96</ele>
        <time>2016-12-11T11:38:17Z</time>
      </trkpt>
      <trkpt lat="46.01793" lon="4.5084">
        <ele>510.12</ele>
        <time>2016-12-11T11:38:33Z</time>
      </trkpt>
      <trkpt lat="46.018" lon="4.50825">
        <ele>507.23</ele>
        <time>2016-12-11T11:38:46Z</time>
      </trkpt>
      <trkpt lat="46.0181" lon="4.50807">
        <ele>503.87</ele>
        <time>2016-12-11T11:39:02Z</time>
      </trkpt>
      <trkpt lat="46.01819" lon="4.50793">
        <ele>500.98</ele>
        <time>2016-12-11T11:39:17Z</time>
      </trkpt>
      <trkpt lat="46.0183" lon="4.50772">
        <ele>498.1</ele>
        <time>2016-12-11T11:39:34Z</time>
      </trkpt>
      <trkpt lat="46.01832" lon="4.50751">
        <ele>495.7</ele>
        <time>2016-12-11T11:39:50Z</time>
      </trkpt>
      <trkpt lat="46.01835" lon="4.50734">
        <ele>492.81</ele>
        <time>2016-12-11T11:40:07Z</time>
      </trkpt>
      <trkpt lat="46.01843" lon="4.5071">
        <ele>489.45</ele>
        <time>2016-12-11T11:40:26Z</time>
      </trkpt>
      <trkpt lat="46.01851" lon="4.50688">
        <ele>486.56</ele>
        <time>2016-12-11T11:40:44Z</time>
      </trkpt>
      <trkpt lat="46.01861" lon="4.50671">
        <ele>483.2</ele>
        <time>2016-12-11T11:41:01Z</time>
      </trkpt>
      <trkpt lat="46.01867" lon="4.50644">
        <ele>480.32</ele>
        <time>2016-12-11T11:41:19Z</time>
      </trkpt>
      <trkpt lat="46.01868" lon="4.50622">
        <ele>477.91</ele>
        <time>2016-12-11T11:41:35Z</time>
      </trkpt>
      <trkpt lat="46.0187" lon="4.50597">
        <ele>475.51</ele>
        <time>2016-12-11T11:41:52Z</time>
      </trkpt>
      <trkpt lat="46.01872" lon="4.5057">
        <ele>472.63</ele>
        <time>2016-12-11T11:42:08Z</time>
      </trkpt>
      <trkpt lat="46.01869" lon="4.5055">
        <ele>469.26</ele>
        <time>2016-12-11T11:42:24Z</time>
      </trkpt>
      <trkpt lat="46.01868" lon="4.50545">
        <ele>468.78</ele>
        <time>2016-12-11T11:42:27Z</time>
      </trkpt>
      <trkpt lat="46.01867" lon="4.50521">
        <ele>465.42</ele>
        <time>2016-12-11T11:42:42Z</time>
      </trkpt>
      <trkpt lat="46.0187" lon="4.50502">
        <ele>462.05</ele>
        <time>2016-12-11T11:42:55Z</time>
      </trkpt>
      <trkpt lat="46.0187" lon="4.50501">
        <ele>462.05</ele>
        <time>2016-12-11T11:42:56Z</time>
      </trkpt>
      <trkpt lat="46.01874" lon="4.50488">
        <ele>458.69</ele>
        <time>2016-12-11T11:43:07Z</time>
      </trkpt>
      <trkpt lat="46.01874" lon="4.50482">
        <ele>458.21</ele>
        <time>2016-12-11T11:43:11Z</time>
      </trkpt>
      <trkpt lat="46.01877" lon="4.50464">
        <ele>454.84</ele>
        <time>2016-12-11T11:43:24Z</time>
      </trkpt>
      <trkpt lat="46.01882" lon="4.50444">
        <ele>451.48</ele>
        <time>2016-12-11T11:43:39Z</time>
      </trkpt>
      <trkpt lat="46.01886" lon="4.50424">
        <ele>448.59</ele>
        <time>2016-12-11T11:43:54Z</time>
      </trkpt>
      <trkpt lat="46.01888" lon="4.50414">
        <ele>445.23</ele>
        <time>2016-12-11T11:44:03Z</time>
      </trkpt>
      <trkpt lat="46.01888" lon="4.50413">
        <ele>445.23</ele>
        <time>2016-12-11T11:44:04Z</time>
      </trkpt>
      <trkpt lat="46.01902" lon="4.50411">
        <ele>441.86</ele>
        <time>2016-12-11T11:44:21Z</time>
      </trkpt>
      <trkpt lat="46.01918" lon="4.50415">
        <ele>438.5</ele>
        <time>2016-12-11T11:44:39Z</time>
      </trkpt>
      <trkpt lat="46.01919" lon="4.50413">
        <ele>437.54</ele>
        <time>2016-12-11T11:44:41Z</time>
      </trkpt>
      <trkpt lat="46.01919" lon="4.50395">
        <ele>434.65</ele>
        <time>2016-12-11T11:44:54Z</time>
      </trkpt>
      <trkpt lat="46.01917" lon="4.50376">
        <ele>431.29</ele>
        <time>2016-12-11T11:45:10Z</time>
      </trkpt>
      <trkpt lat="46.01921" lon="4.50352">
        <ele>427.44</ele>
        <time>2016-12-11T11:45:26Z</time>
      </trkpt>
      <trkpt lat="46.01926" lon="4.50323">
        <ele>424.56</ele>
        <time>2016-12-11T11:45:42Z</time>
      </trkpt>
      <trkpt lat="46.01931" lon="4.50298">
        <ele>421.68</ele>
        <time>2016-12-11T11:45:59Z</time>
      </trkpt>
      <trkpt lat="46.01934" lon="4.50283">
        <ele>420.23</ele>
        <time>2016-12-11T11:46:09Z</time>
      </trkpt>
      <trkpt lat="46.01939" lon="4.5026">
        <ele>418.31</ele>
        <time>2016-12-11T11:46:24Z</time>
      </trkpt>
      <trkpt lat="46.01949" lon="4.5026">
        <ele>416.39</ele>
        <time>2016-12-11T11:46:35Z</time>
      </trkpt>
      <trkpt lat="46.01957" lon="4.50275">
        <ele>413.5</ele>
        <time>2016-12-11T11:46:47Z</time>
      </trkpt>
      <trkpt lat="46.01962" lon="4.50276">
        <ele>413.5</ele>
        <time>2016-12-11T11:46:51Z</time>
      </trkpt>
      <trkpt lat="46.0197" lon="4.50252">
        <ele>412.06</ele>
        <time>2016-12-11T11:47:07Z</time>
      </trkpt>
      <trkpt lat="46.0198" lon="4.50252">
        <ele>408.7</ele>
        <time>2016-12-11T11:47:19Z</time>
      </trkpt>
      <trkpt lat="46.01992" lon="4.50254">
        <ele>404.85</ele>
        <time>2016-12-11T11:47:33Z</time>
      </trkpt>
      <trkpt lat="46.02006" lon="4.50258">
        <ele>402.45</ele>
        <time>2016-12-11T11:47:48Z</time>
      </trkpt>
      <trkpt lat="46.02021" lon="4.50266">
        <ele>398.6</ele>
        <time>2016-12-11T11:48:03Z</time>
      </trkpt>
      <trkpt lat="46.02026" lon="4.50266">
        <ele>398.12</ele>
        <time>2016-12-11T11:48:08Z</time>
      </trkpt>
      <trkpt lat="46.02043" lon="4.50268">
        <ele>394.76</ele>
        <time>2016-12-11T11:48:24Z</time>
      </trkpt>
      <trkpt lat="46.02057" lon="4.50263">
        <ele>391.39</ele>
        <time>2016-12-11T11:48:39Z</time>
      </trkpt>
      <trkpt lat="46.02071" lon="4.50256">
        <ele>388.51</ele>
        <time>2016-12-11T11:48:54Z</time>
      </trkpt>
      <trkpt lat="46.02086" lon="4.50249">
        <ele>385.15</ele>
        <time>2016-12-11T11:49:08Z</time>
      </trkpt>
      <trkpt lat="46.02102" lon="4.5025">
        <ele>383.22</ele>
        <time>2016-12-11T11:49:24Z</time>
      </trkpt>
      <trkpt lat="46.02107" lon="4.50246">
        <ele>382.26</ele>
        <time>2016-12-11T11:49:29Z</time>
      </trkpt>
      <trkpt lat="46.02113" lon="4.50222">
        <ele>378.9</ele>
        <time>2016-12-11T11:49:46Z</time>
      </trkpt>
      <trkpt lat="46.02111" lon="4.50201">
        <ele>375.53</ele>
        <time>2016-12-11T11:50:00Z</time>
      </trkpt>
      <trkpt lat="46.02111" lon="4.502">
        <ele>375.53</ele>
        <time>2016-12-11T11:50:01Z</time>
      </trkpt>
      <trkpt lat="46.02104" lon="4.50168">
        <ele>372.17</ele>
        <time>2016-12-11T11:50:20Z</time>
      </trkpt>
      <trkpt lat="46.02095" lon="4.50141">
        <ele>369.28</ele>
        <time>2016-12-11T11:50:37Z</time>
      </trkpt>
      <trkpt lat="46.02086" lon="4.50114">
        <ele>366.88</ele>
        <time>2016-12-11T11:50:55Z</time>
      </trkpt>
      <trkpt lat="46.02079" lon="4.50102">
        <ele>363.52</ele>
        <time>2016-12-11T11:51:06Z</time>
      </trkpt>
      <trkpt lat="46.02069" lon="4.50087">
        <ele>359.67</ele>
        <time>2016-12-11T11:51:21Z</time>
      </trkpt>
      <trkpt lat="46.02061" lon="4.50073">
        <ele>357.75</ele>
        <time>2016-12-11T11:51:32Z</time>
      </trkpt>
      <trkpt lat="46.02047" lon="4.50056">
        <ele>355.34</ele>
        <time>2016-12-11T11:51:49Z</time>
      </trkpt>
      <trkpt lat="46.02033" lon="4.50034">
        <ele>352.46</ele>
        <time>2016-12-11T11:52:06Z</time>
      </trkpt>
      <trkpt lat="46.02019" lon="4.50015">
        <ele>351.02</ele>
        <time>2016-12-11T11:52:20Z</time>
      </trkpt>
      <trkpt lat="46.02006" lon="4.50001">
        <ele>349.1</ele>
        <time>2016-12-11T11:52:35Z</time>
      </trkpt>
      <trkpt lat="46.01992" lon="4.49974">
        <ele>346.21</ele>
        <time>2016-12-11T11:52:53Z</time>
      </trkpt>
      <trkpt lat="46.01978" lon="4.49959">
        <ele>343.33</ele>
        <time>2016-12-11T11:53:10Z</time>
      </trkpt>
      <trkpt lat="46.01965" lon="4.49942">
        <ele>342.37</ele>
        <time>2016-12-11T11:53:27Z</time>
      </trkpt>
      <trkpt lat="46.01948" lon="4.49926">
        <ele>340.92</ele>
        <time>2016-12-11T11:53:43Z</time>
      </trkpt>
      <trkpt lat="46.01946" lon="4.49925">
        <ele>340.92</ele>
        <time>2016-12-11T11:53:44Z</time>
      </trkpt>
      <trkpt lat="46.01938" lon="4.49917">
        <ele>340.44</ele>
        <time>2016-12-11T11:53:52Z</time>
      </trkpt>
      <trkpt lat="46.01926" lon="4.49911">
        <ele>339</ele>
        <time>2016-12-11T11:54:06Z</time>
      </trkpt>
      <trkpt lat="46.01925" lon="4.4991">
        <ele>339</ele>
        <time>2016-12-11T11:54:07Z</time>
      </trkpt>
      <trkpt lat="46.01909" lon="4.49901">
        <ele>338.04</ele>
        <time>2016-12-11T11:54:21Z</time>
      </trkpt>
      <trkpt lat="46.01901" lon="4.49892">
        <ele>337.08</ele>
        <time>2016-12-11T11:54:30Z</time>
      </trkpt>
      <trkpt lat="46.01883" lon="4.49874">
        <ele>336.12</ele>
        <time>2016-12-11T11:54:50Z</time>
      </trkpt>
      <trkpt lat="46.01861" lon="4.49859">
        <ele>334.68</ele>
        <time>2016-12-11T11:55:07Z</time>
      </trkpt>
      <trkpt lat="46.01854" lon="4.49852">
        <ele>333.71</ele>
        <time>2016-12-11T11:55:14Z</time>
      </trkpt>
      <trkpt lat="46.01849" lon="4.49832">
        <ele>332.75</ele>
        <time>2016-12-11T11:55:23Z</time>
      </trkpt>
      <trkpt lat="46.01859" lon="4.49808">
        <ele>330.83</ele>
        <time>2016-12-11T11:55:41Z</time>
      </trkpt>
      <trkpt lat="46.01862" lon="4.49789">
        <ele>329.87</ele>
        <time>2016-12-11T11:55:53Z</time>
      </trkpt>
      <trkpt lat="46.01845" lon="4.49781">
        <ele>327.95</ele>
        <time>2016-12-11T11:56:09Z</time>
      </trkpt>
      <trkpt lat="46.01824" lon="4.49768">
        <ele>326.99</ele>
        <time>2016-12-11T11:56:26Z</time>
      </trkpt>
      <trkpt lat="46.01822" lon="4.49766">
        <ele>326.99</ele>
        <time>2016-12-11T11:56:28Z</time>
      </trkpt>
      <trkpt lat="46.01813" lon="4.49774">
        <ele>326.99</ele>
        <time>2016-12-11T11:56:40Z</time>
      </trkpt>
      <trkpt lat="46.01812" lon="4.49786">
        <ele>326.99</ele>
        <time>2016-12-11T11:56:54Z</time>
      </trkpt>
      <trkpt lat="46.01806" lon="4.49791">
        <ele>328.91</ele>
        <time>2016-12-11T11:57:10Z</time>
      </trkpt>
      <trkpt lat="46.01808" lon="4.49808">
        <ele>330.35</ele>
        <time>2016-12-11T12:02:32Z</time>
      </trkpt>
    </trkseg>
  </trk>
</gpx>